<?xml version='1.0' encoding='UTF-8'?><gpx version="1.1" creator="JPX - https://github.com/jenetics/jpx" xmlns="http://www.topografix.com/GPX/1/1"><trk><trkseg><trkpt lat="45.5711273" lon="8.647358"><ele>194.00000000000003</ele><time>2026-04-18T08:02:12.399Z</time></trkpt><trkpt lat="45.5710793" lon="8.6472873"><ele>194.0</ele><time>2026-04-18T08:02:26.414Z</time></trkpt><trkpt lat="45.5709807" lon="8.6472971"><ele>194.0</ele><time>2026-04-18T08:03:08.438Z</time></trkpt><trkpt lat="45.570998" lon="8.6474157"><ele>194.0</ele><time>2026-04-18T08:03:12.334Z</time></trkpt><trkpt lat="45.5710159" lon="8.6475201"><ele>194.00000000000003</ele><time>2026-04-18T08:03:15.184Z</time></trkpt><trkpt lat="45.5710307" lon="8.647647"><ele>194.0</ele><time>2026-04-18T08:03:18.42Z</time></trkpt><trkpt lat="45.5710445" lon="8.6477695"><ele>194.16666666666669</ele><time>2026-04-18T08:03:21.425Z</time></trkpt><trkpt lat="45.571052" lon="8.6478696"><ele>194.33333333333334</ele><time>2026-04-18T08:03:23.438Z</time></trkpt><trkpt lat="45.571064" lon="8.6479652"><ele>194.5</ele><time>2026-04-18T08:03:25.377Z</time></trkpt><trkpt lat="45.5710812" lon="8.6481017"><ele>194.66666666666669</ele><time>2026-04-18T08:03:28.283Z</time></trkpt><trkpt lat="45.5710935" lon="8.6481969"><ele>194.83333333333334</ele><time>2026-04-18T08:03:30.329Z</time></trkpt><trkpt lat="45.5711089" lon="8.6483139"><ele>195.0</ele><time>2026-04-18T08:03:33.438Z</time></trkpt><trkpt lat="45.5710986" lon="8.6484052"><ele>195.0</ele><time>2026-04-18T08:03:37.392Z</time></trkpt><trkpt lat="45.5710506" lon="8.6484827"><ele>195.0</ele><time>2026-04-18T08:03:43.431Z</time></trkpt><trkpt lat="45.5710277" lon="8.6486005"><ele>195.0</ele><time>2026-04-18T08:03:47.399Z</time></trkpt><trkpt lat="45.5710523" lon="8.6486935"><ele>195.0</ele><time>2026-04-18T08:03:49.379Z</time></trkpt><trkpt lat="45.5710678" lon="8.6487968"><ele>195.0</ele><time>2026-04-18T08:03:51.325Z</time></trkpt><trkpt lat="45.5710777" lon="8.6489204"><ele>195.0</ele><time>2026-04-18T08:03:53.456Z</time></trkpt><trkpt lat="45.5710892" lon="8.6490694"><ele>194.83333333333334</ele><time>2026-04-18T08:03:55.442Z</time></trkpt><trkpt lat="45.5711002" lon="8.6492081"><ele>194.66666666666669</ele><time>2026-04-18T08:03:57.384Z</time></trkpt><trkpt lat="45.5711048" lon="8.6493361"><ele>194.5</ele><time>2026-04-18T08:03:59.388Z</time></trkpt><trkpt lat="45.571114" lon="8.649458"><ele>194.33333333333334</ele><time>2026-04-18T08:04:01.403Z</time></trkpt><trkpt lat="45.5711227" lon="8.649582"><ele>194.16666666666669</ele><time>2026-04-18T08:04:03.422Z</time></trkpt><trkpt lat="45.5711278" lon="8.6496977"><ele>194.0</ele><time>2026-04-18T08:04:05.44Z</time></trkpt><trkpt lat="45.5711265" lon="8.6498026"><ele>193.85714285714286</ele><time>2026-04-18T08:04:07.459Z</time></trkpt><trkpt lat="45.5711233" lon="8.6499283"><ele>193.71428571428572</ele><time>2026-04-18T08:04:10.388Z</time></trkpt><trkpt lat="45.57113" lon="8.65003"><ele>193.57142857142858</ele><time>2026-04-18T08:04:12.388Z</time></trkpt><trkpt lat="45.571135" lon="8.6501333"><ele>193.42857142857144</ele><time>2026-04-18T08:04:14.388Z</time></trkpt><trkpt lat="45.5711383" lon="8.6502317"><ele>193.28571428571428</ele><time>2026-04-18T08:04:16.386Z</time></trkpt><trkpt lat="45.5711417" lon="8.6503317"><ele>193.14285714285717</ele><time>2026-04-18T08:04:18.388Z</time></trkpt><trkpt lat="45.57114" lon="8.6504283"><ele>193.0</ele><time>2026-04-18T08:04:20.383Z</time></trkpt><trkpt lat="45.5711367" lon="8.6505383"><ele>192.99999999999997</ele><time>2026-04-18T08:04:22.387Z</time></trkpt><trkpt lat="45.5711417" lon="8.650635"><ele>193.0</ele><time>2026-04-18T08:04:24.388Z</time></trkpt><trkpt lat="45.5711433" lon="8.65077"><ele>193.0</ele><time>2026-04-18T08:04:27.389Z</time></trkpt><trkpt lat="45.5711433" lon="8.6508667"><ele>193.0</ele><time>2026-04-18T08:04:29.384Z</time></trkpt><trkpt lat="45.5711467" lon="8.6509967"><ele>192.99999999999997</ele><time>2026-04-18T08:04:32.396Z</time></trkpt><trkpt lat="45.5711533" lon="8.6510883"><ele>193.0</ele><time>2026-04-18T08:04:36.389Z</time></trkpt><trkpt lat="45.5712" lon="8.6511717"><ele>193.16666666666666</ele><time>2026-04-18T08:04:52.385Z</time></trkpt><trkpt lat="45.5712817" lon="8.6512167"><ele>193.33333333333331</ele><time>2026-04-18T08:04:56.389Z</time></trkpt><trkpt lat="45.5713717" lon="8.6512233"><ele>193.5</ele><time>2026-04-18T08:04:59.39Z</time></trkpt><trkpt lat="45.5714583" lon="8.65123"><ele>193.66666666666669</ele><time>2026-04-18T08:05:02.393Z</time></trkpt><trkpt lat="45.5715517" lon="8.6512533"><ele>193.83333333333334</ele><time>2026-04-18T08:05:05.386Z</time></trkpt><trkpt lat="45.571615" lon="8.6512617"><ele>194.0</ele><time>2026-04-18T08:05:07.387Z</time></trkpt><trkpt lat="45.57168" lon="8.6512717"><ele>194.00000000000003</ele><time>2026-04-18T08:05:09.388Z</time></trkpt><trkpt lat="45.5717733" lon="8.65128"><ele>194.0</ele><time>2026-04-18T08:05:12.39Z</time></trkpt><trkpt lat="45.5718383" lon="8.6512883"><ele>194.0</ele><time>2026-04-18T08:05:14.388Z</time></trkpt><trkpt lat="45.5719317" lon="8.651285"><ele>194.0</ele><time>2026-04-18T08:05:17.388Z</time></trkpt><trkpt lat="45.5720167" lon="8.651285"><ele>194.00000000000003</ele><time>2026-04-18T08:05:20.389Z</time></trkpt><trkpt lat="45.5720833" lon="8.651345"><ele>194.0</ele><time>2026-04-18T08:05:23.387Z</time></trkpt><trkpt lat="45.572095" lon="8.6514667"><ele>194.00000000000003</ele><time>2026-04-18T08:05:26.388Z</time></trkpt><trkpt lat="45.5720767" lon="8.6515883"><ele>194.0</ele><time>2026-04-18T08:05:29.388Z</time></trkpt><trkpt lat="45.5720583" lon="8.6517233"><ele>194.0</ele><time>2026-04-18T08:05:32.388Z</time></trkpt><trkpt lat="45.5720433" lon="8.6518267"><ele>194.0</ele><time>2026-04-18T08:05:34.388Z</time></trkpt><trkpt lat="45.5720283" lon="8.6519283"><ele>194.00000000000003</ele><time>2026-04-18T08:05:36.389Z</time></trkpt><trkpt lat="45.57201" lon="8.6520217"><ele>194.0</ele><time>2026-04-18T08:05:38.388Z</time></trkpt><trkpt lat="45.5719933" lon="8.65211"><ele>194.0</ele><time>2026-04-18T08:05:40.38Z</time></trkpt><trkpt lat="45.5719667" lon="8.652235"><ele>194.0</ele><time>2026-04-18T08:05:43.387Z</time></trkpt><trkpt lat="45.57195" lon="8.6523233"><ele>194.0</ele><time>2026-04-18T08:05:45.385Z</time></trkpt><trkpt lat="45.571935" lon="8.6524167"><ele>194.0</ele><time>2026-04-18T08:05:47.388Z</time></trkpt><trkpt lat="45.57192" lon="8.6525117"><ele>194.0</ele><time>2026-04-18T08:05:49.388Z</time></trkpt><trkpt lat="45.5719" lon="8.6526083"><ele>194.0</ele><time>2026-04-18T08:05:51.387Z</time></trkpt><trkpt lat="45.57188" lon="8.6527"><ele>194.0</ele><time>2026-04-18T08:05:53.387Z</time></trkpt><trkpt lat="45.57186" lon="8.652795"><ele>194.0</ele><time>2026-04-18T08:05:55.385Z</time></trkpt><trkpt lat="45.5718433" lon="8.6528917"><ele>194.0</ele><time>2026-04-18T08:05:57.388Z</time></trkpt><trkpt lat="45.571825" lon="8.653"><ele>194.0</ele><time>2026-04-18T08:05:59.388Z</time></trkpt><trkpt lat="45.571805" lon="8.65309"><ele>194.0</ele><time>2026-04-18T08:06:01.391Z</time></trkpt><trkpt lat="45.5717833" lon="8.653175"><ele>194.0</ele><time>2026-04-18T08:06:03.39Z</time></trkpt><trkpt lat="45.5717633" lon="8.6532667"><ele>194.0</ele><time>2026-04-18T08:06:05.387Z</time></trkpt><trkpt lat="45.5717433" lon="8.65336"><ele>194.0</ele><time>2026-04-18T08:06:07.389Z</time></trkpt><trkpt lat="45.571725" lon="8.653455"><ele>194.00000000000003</ele><time>2026-04-18T08:06:09.387Z</time></trkpt><trkpt lat="45.5717133" lon="8.6535533"><ele>194.0</ele><time>2026-04-18T08:06:11.389Z</time></trkpt><trkpt lat="45.57169" lon="8.653685"><ele>194.0</ele><time>2026-04-18T08:06:14.387Z</time></trkpt><trkpt lat="45.571675" lon="8.6537733"><ele>194.0</ele><time>2026-04-18T08:06:16.387Z</time></trkpt><trkpt lat="45.571665" lon="8.6538633"><ele>194.00000000000003</ele><time>2026-04-18T08:06:18.389Z</time></trkpt><trkpt lat="45.5716667" lon="8.6539883"><ele>194.0</ele><time>2026-04-18T08:06:21.387Z</time></trkpt><trkpt lat="45.5716933" lon="8.65412"><ele>193.85714285714286</ele><time>2026-04-18T08:06:24.387Z</time></trkpt><trkpt lat="45.571715" lon="8.654215"><ele>193.71428571428572</ele><time>2026-04-18T08:06:26.391Z</time></trkpt><trkpt lat="45.5717367" lon="8.654315"><ele>193.57142857142858</ele><time>2026-04-18T08:06:28.387Z</time></trkpt><trkpt lat="45.5717567" lon="8.6544117"><ele>193.42857142857144</ele><time>2026-04-18T08:06:30.39Z</time></trkpt><trkpt lat="45.57178" lon="8.6545117"><ele>193.28571428571428</ele><time>2026-04-18T08:06:32.388Z</time></trkpt><trkpt lat="45.5718" lon="8.6546067"><ele>193.14285714285717</ele><time>2026-04-18T08:06:34.386Z</time></trkpt><trkpt lat="45.5718167" lon="8.65473"><ele>193.0</ele><time>2026-04-18T08:06:37.388Z</time></trkpt><trkpt lat="45.571835" lon="8.65485"><ele>192.66666666666666</ele><time>2026-04-18T08:06:41.388Z</time></trkpt><trkpt lat="45.5718467" lon="8.6549683"><ele>192.33333333333331</ele><time>2026-04-18T08:06:44.39Z</time></trkpt><trkpt lat="45.5718567" lon="8.6550967"><ele>192.0</ele><time>2026-04-18T08:06:47.389Z</time></trkpt><trkpt lat="45.5718667" lon="8.6552183"><ele>191.66666666666666</ele><time>2026-04-18T08:06:50.387Z</time></trkpt><trkpt lat="45.571875" lon="8.65534"><ele>191.33333333333331</ele><time>2026-04-18T08:06:53.388Z</time></trkpt><trkpt lat="45.571875" lon="8.6554433"><ele>191.0</ele><time>2026-04-18T08:06:55.389Z</time></trkpt><trkpt lat="45.5718783" lon="8.6555617"><ele>190.85714285714286</ele><time>2026-04-18T08:06:58.381Z</time></trkpt><trkpt lat="45.5718867" lon="8.6556583"><ele>190.7142857142857</ele><time>2026-04-18T08:07:02.39Z</time></trkpt><trkpt lat="45.5718967" lon="8.6557567"><ele>190.57142857142856</ele><time>2026-04-18T08:07:05.388Z</time></trkpt><trkpt lat="45.5719217" lon="8.6558533"><ele>190.42857142857144</ele><time>2026-04-18T08:07:08.39Z</time></trkpt><trkpt lat="45.5719433" lon="8.655945"><ele>190.28571428571428</ele><time>2026-04-18T08:07:11.381Z</time></trkpt><trkpt lat="45.5719633" lon="8.6560317"><ele>190.14285714285714</ele><time>2026-04-18T08:07:13.384Z</time></trkpt><trkpt lat="45.571985" lon="8.656135"><ele>190.0</ele><time>2026-04-18T08:07:16.387Z</time></trkpt><trkpt lat="45.5720017" lon="8.6562283"><ele>190.0</ele><time>2026-04-18T08:07:18.388Z</time></trkpt><trkpt lat="45.5720283" lon="8.6563583"><ele>190.0</ele><time>2026-04-18T08:07:21.384Z</time></trkpt><trkpt lat="45.5720417" lon="8.6564483"><ele>190.0</ele><time>2026-04-18T08:07:23.382Z</time></trkpt><trkpt lat="45.5720583" lon="8.6565367"><ele>190.0</ele><time>2026-04-18T08:07:25.38Z</time></trkpt><trkpt lat="45.5720867" lon="8.6566567"><ele>190.0</ele><time>2026-04-18T08:07:28.386Z</time></trkpt><trkpt lat="45.5721083" lon="8.6567817"><ele>190.0</ele><time>2026-04-18T08:07:31.389Z</time></trkpt><trkpt lat="45.5721417" lon="8.656915"><ele>190.5</ele><time>2026-04-18T08:07:34.387Z</time></trkpt><trkpt lat="45.57217" lon="8.6570333"><ele>191.0</ele><time>2026-04-18T08:07:36.39Z</time></trkpt><trkpt lat="45.5721933" lon="8.6571367"><ele>191.5</ele><time>2026-04-18T08:07:38.388Z</time></trkpt><trkpt lat="45.572215" lon="8.65723"><ele>192.0</ele><time>2026-04-18T08:07:40.386Z</time></trkpt><trkpt lat="45.5722417" lon="8.6573217"><ele>192.49999999999997</ele><time>2026-04-18T08:07:42.388Z</time></trkpt><trkpt lat="45.572275" lon="8.6574417"><ele>193.0</ele><time>2026-04-18T08:07:45.386Z</time></trkpt><trkpt lat="45.5723033" lon="8.6575533"><ele>192.99999999999997</ele><time>2026-04-18T08:07:48.386Z</time></trkpt><trkpt lat="45.572335" lon="8.6576533"><ele>193.0</ele><time>2026-04-18T08:07:51.388Z</time></trkpt><trkpt lat="45.57236" lon="8.6577517"><ele>193.0</ele><time>2026-04-18T08:07:54.391Z</time></trkpt><trkpt lat="45.5723833" lon="8.657865"><ele>193.0</ele><time>2026-04-18T08:07:57.39Z</time></trkpt><trkpt lat="45.5724117" lon="8.657975"><ele>192.99999999999997</ele><time>2026-04-18T08:08:00.382Z</time></trkpt><trkpt lat="45.5724317" lon="8.65808"><ele>193.0</ele><time>2026-04-18T08:08:03.388Z</time></trkpt><trkpt lat="45.5724617" lon="8.6581767"><ele>192.85714285714286</ele><time>2026-04-18T08:08:06.389Z</time></trkpt><trkpt lat="45.5724767" lon="8.658265"><ele>192.71428571428572</ele><time>2026-04-18T08:08:09.391Z</time></trkpt><trkpt lat="45.57249" lon="8.6583567"><ele>192.57142857142856</ele><time>2026-04-18T08:08:12.385Z</time></trkpt><trkpt lat="45.5724983" lon="8.658455"><ele>192.42857142857144</ele><time>2026-04-18T08:08:15.387Z</time></trkpt><trkpt lat="45.5725117" lon="8.6585617"><ele>192.28571428571428</ele><time>2026-04-18T08:08:18.389Z</time></trkpt><trkpt lat="45.572525" lon="8.6586667"><ele>192.14285714285714</ele><time>2026-04-18T08:08:21.388Z</time></trkpt><trkpt lat="45.572535" lon="8.658765"><ele>192.0</ele><time>2026-04-18T08:08:24.385Z</time></trkpt><trkpt lat="45.5725467" lon="8.6588667"><ele>192.0</ele><time>2026-04-18T08:08:27.391Z</time></trkpt><trkpt lat="45.57256" lon="8.6589817"><ele>192.0</ele><time>2026-04-18T08:08:31.388Z</time></trkpt><trkpt lat="45.572575" lon="8.659095"><ele>192.0</ele><time>2026-04-18T08:08:35.386Z</time></trkpt><trkpt lat="45.5725917" lon="8.65921"><ele>192.0</ele><time>2026-04-18T08:08:38.389Z</time></trkpt><trkpt lat="45.5726017" lon="8.659305"><ele>192.0</ele><time>2026-04-18T08:08:40.388Z</time></trkpt><trkpt lat="45.5726133" lon="8.659405"><ele>192.0</ele><time>2026-04-18T08:08:42.388Z</time></trkpt><trkpt lat="45.572625" lon="8.6595"><ele>192.0</ele><time>2026-04-18T08:08:44.388Z</time></trkpt><trkpt lat="45.5726433" lon="8.6596217"><ele>192.0</ele><time>2026-04-18T08:08:47.389Z</time></trkpt><trkpt lat="45.572665" lon="8.6597433"><ele>192.0</ele><time>2026-04-18T08:08:50.388Z</time></trkpt><trkpt lat="45.572695" lon="8.659855"><ele>192.0</ele><time>2026-04-18T08:08:53.388Z</time></trkpt><trkpt lat="45.57272" lon="8.6599717"><ele>192.0</ele><time>2026-04-18T08:08:56.388Z</time></trkpt><trkpt lat="45.5727467" lon="8.660075"><ele>192.0</ele><time>2026-04-18T08:08:59.388Z</time></trkpt><trkpt lat="45.57277" lon="8.66017"><ele>191.99999999999997</ele><time>2026-04-18T08:09:02.389Z</time></trkpt><trkpt lat="45.57279" lon="8.6602567"><ele>192.0</ele><time>2026-04-18T08:09:05.389Z</time></trkpt><trkpt lat="45.5728117" lon="8.660345"><ele>192.0</ele><time>2026-04-18T08:09:08.392Z</time></trkpt><trkpt lat="45.5728383" lon="8.660445"><ele>192.0</ele><time>2026-04-18T08:09:11.389Z</time></trkpt><trkpt lat="45.57286" lon="8.6605383"><ele>192.0</ele><time>2026-04-18T08:09:14.387Z</time></trkpt><trkpt lat="45.5728883" lon="8.6606333"><ele>191.99999999999997</ele><time>2026-04-18T08:09:17.385Z</time></trkpt><trkpt lat="45.57291" lon="8.66072"><ele>192.0</ele><time>2026-04-18T08:09:20.386Z</time></trkpt><trkpt lat="45.57294" lon="8.6608333"><ele>191.85714285714283</ele><time>2026-04-18T08:09:24.388Z</time></trkpt><trkpt lat="45.5729667" lon="8.660915"><ele>191.71428571428572</ele><time>2026-04-18T08:09:27.389Z</time></trkpt><trkpt lat="45.5729933" lon="8.6610083"><ele>191.57142857142856</ele><time>2026-04-18T08:09:30.38Z</time></trkpt><trkpt lat="45.57302" lon="8.6610967"><ele>191.42857142857142</ele><time>2026-04-18T08:09:33.387Z</time></trkpt><trkpt lat="45.5730467" lon="8.6611983"><ele>191.28571428571428</ele><time>2026-04-18T08:09:36.388Z</time></trkpt><trkpt lat="45.5730767" lon="8.6612983"><ele>191.14285714285714</ele><time>2026-04-18T08:09:39.387Z</time></trkpt><trkpt lat="45.57311" lon="8.6614117"><ele>191.0</ele><time>2026-04-18T08:09:42.385Z</time></trkpt><trkpt lat="45.5731433" lon="8.66152"><ele>191.0</ele><time>2026-04-18T08:09:45.387Z</time></trkpt><trkpt lat="45.573175" lon="8.6616217"><ele>191.0</ele><time>2026-04-18T08:09:48.387Z</time></trkpt><trkpt lat="45.57321" lon="8.6617283"><ele>191.0</ele><time>2026-04-18T08:09:51.388Z</time></trkpt><trkpt lat="45.5732467" lon="8.6618417"><ele>191.0</ele><time>2026-04-18T08:09:54.387Z</time></trkpt><trkpt lat="45.5732817" lon="8.6619633"><ele>191.0</ele><time>2026-04-18T08:09:57.387Z</time></trkpt><trkpt lat="45.5733067" lon="8.6620467"><ele>191.0</ele><time>2026-04-18T08:09:59.388Z</time></trkpt><trkpt lat="45.5733333" lon="8.6621583"><ele>190.85714285714286</ele><time>2026-04-18T08:10:02.39Z</time></trkpt><trkpt lat="45.5733583" lon="8.66226"><ele>190.7142857142857</ele><time>2026-04-18T08:10:05.387Z</time></trkpt><trkpt lat="45.5733817" lon="8.6623617"><ele>190.57142857142856</ele><time>2026-04-18T08:10:08.389Z</time></trkpt><trkpt lat="45.573405" lon="8.6624567"><ele>190.42857142857144</ele><time>2026-04-18T08:10:11.389Z</time></trkpt><trkpt lat="45.5734267" lon="8.662555"><ele>190.28571428571428</ele><time>2026-04-18T08:10:14.388Z</time></trkpt><trkpt lat="45.57345" lon="8.66266"><ele>190.14285714285714</ele><time>2026-04-18T08:10:17.388Z</time></trkpt><trkpt lat="45.5734717" lon="8.6627633"><ele>190.0</ele><time>2026-04-18T08:10:20.389Z</time></trkpt><trkpt lat="45.573495" lon="8.6628567"><ele>190.0</ele><time>2026-04-18T08:10:23.383Z</time></trkpt><trkpt lat="45.57352" lon="8.6629417"><ele>190.0</ele><time>2026-04-18T08:10:26.388Z</time></trkpt><trkpt lat="45.57355" lon="8.66305"><ele>190.0</ele><time>2026-04-18T08:10:30.388Z</time></trkpt><trkpt lat="45.5735783" lon="8.6631633"><ele>190.0</ele><time>2026-04-18T08:10:34.383Z</time></trkpt><trkpt lat="45.5736067" lon="8.6632717"><ele>190.0</ele><time>2026-04-18T08:10:38.39Z</time></trkpt><trkpt lat="45.5736333" lon="8.6633767"><ele>190.0</ele><time>2026-04-18T08:10:42.381Z</time></trkpt><trkpt lat="45.5736567" lon="8.6634883"><ele>190.0</ele><time>2026-04-18T08:10:46.385Z</time></trkpt><trkpt lat="45.5736817" lon="8.6635967"><ele>190.0</ele><time>2026-04-18T08:10:50.389Z</time></trkpt><trkpt lat="45.5737" lon="8.6636833"><ele>190.0</ele><time>2026-04-18T08:10:53.389Z</time></trkpt><trkpt lat="45.5737183" lon="8.663775"><ele>190.0</ele><time>2026-04-18T08:10:56.389Z</time></trkpt><trkpt lat="45.573735" lon="8.663865"><ele>190.0</ele><time>2026-04-18T08:10:59.388Z</time></trkpt><trkpt lat="45.5737517" lon="8.6639533"><ele>190.0</ele><time>2026-04-18T08:11:02.387Z</time></trkpt><trkpt lat="45.5737683" lon="8.6640433"><ele>190.0</ele><time>2026-04-18T08:11:05.386Z</time></trkpt><trkpt lat="45.5737867" lon="8.6641383"><ele>190.16666666666669</ele><time>2026-04-18T08:11:08.387Z</time></trkpt><trkpt lat="45.5738083" lon="8.6642283"><ele>190.33333333333334</ele><time>2026-04-18T08:11:11.389Z</time></trkpt><trkpt lat="45.57384" lon="8.66433"><ele>190.5</ele><time>2026-04-18T08:11:14.387Z</time></trkpt><trkpt lat="45.5738633" lon="8.66444"><ele>190.66666666666666</ele><time>2026-04-18T08:11:17.387Z</time></trkpt><trkpt lat="45.5738883" lon="8.66456"><ele>190.83333333333331</ele><time>2026-04-18T08:11:20.391Z</time></trkpt><trkpt lat="45.5739133" lon="8.6646883"><ele>191.0</ele><time>2026-04-18T08:11:23.388Z</time></trkpt><trkpt lat="45.5739367" lon="8.664815"><ele>191.0</ele><time>2026-04-18T08:11:26.387Z</time></trkpt><trkpt lat="45.57396" lon="8.6649267"><ele>191.0</ele><time>2026-04-18T08:11:29.382Z</time></trkpt><trkpt lat="45.5739783" lon="8.6650283"><ele>191.0</ele><time>2026-04-18T08:11:32.387Z</time></trkpt><trkpt lat="45.574" lon="8.66513"><ele>191.0</ele><time>2026-04-18T08:11:35.387Z</time></trkpt><trkpt lat="45.5740233" lon="8.66523"><ele>191.0</ele><time>2026-04-18T08:11:38.382Z</time></trkpt><trkpt lat="45.57405" lon="8.6653333"><ele>191.0</ele><time>2026-04-18T08:11:41.386Z</time></trkpt><trkpt lat="45.5740717" lon="8.66544"><ele>191.5</ele><time>2026-04-18T08:11:44.388Z</time></trkpt><trkpt lat="45.5740933" lon="8.6655417"><ele>192.0</ele><time>2026-04-18T08:11:47.386Z</time></trkpt><trkpt lat="45.574115" lon="8.6656517"><ele>192.5</ele><time>2026-04-18T08:11:50.387Z</time></trkpt><trkpt lat="45.5741333" lon="8.6657633"><ele>193.0</ele><time>2026-04-18T08:11:53.385Z</time></trkpt><trkpt lat="45.57415" lon="8.6658683"><ele>193.50000000000003</ele><time>2026-04-18T08:11:56.388Z</time></trkpt><trkpt lat="45.5741617" lon="8.6659733"><ele>194.0</ele><time>2026-04-18T08:11:59.386Z</time></trkpt><trkpt lat="45.57417" lon="8.66608"><ele>194.57142857142856</ele><time>2026-04-18T08:12:02.386Z</time></trkpt><trkpt lat="45.5741917" lon="8.66618"><ele>195.14285714285717</ele><time>2026-04-18T08:12:05.387Z</time></trkpt><trkpt lat="45.5742133" lon="8.6662767"><ele>195.71428571428572</ele><time>2026-04-18T08:12:08.384Z</time></trkpt><trkpt lat="45.5742317" lon="8.6663733"><ele>196.28571428571428</ele><time>2026-04-18T08:12:11.385Z</time></trkpt><trkpt lat="45.5742533" lon="8.6664717"><ele>196.85714285714283</ele><time>2026-04-18T08:12:14.389Z</time></trkpt><trkpt lat="45.5742733" lon="8.6665633"><ele>197.42857142857144</ele><time>2026-04-18T08:12:17.386Z</time></trkpt><trkpt lat="45.5743083" lon="8.6666483"><ele>198.0</ele><time>2026-04-18T08:12:21.388Z</time></trkpt><trkpt lat="45.574335" lon="8.6667433"><ele>198.0</ele><time>2026-04-18T08:12:28.385Z</time></trkpt><trkpt lat="45.574345" lon="8.66686"><ele>198.0</ele><time>2026-04-18T08:12:32.384Z</time></trkpt><trkpt lat="45.5743617" lon="8.6669733"><ele>198.0</ele><time>2026-04-18T08:12:36.388Z</time></trkpt><trkpt lat="45.5743683" lon="8.6670633"><ele>198.0</ele><time>2026-04-18T08:12:39.385Z</time></trkpt><trkpt lat="45.5743867" lon="8.6671517"><ele>198.0</ele><time>2026-04-18T08:12:42.386Z</time></trkpt><trkpt lat="45.5744" lon="8.6672717"><ele>198.0</ele><time>2026-04-18T08:12:46.388Z</time></trkpt><trkpt lat="45.57442" lon="8.6673817"><ele>198.0</ele><time>2026-04-18T08:12:49.384Z</time></trkpt><trkpt lat="45.574435" lon="8.6675067"><ele>198.0</ele><time>2026-04-18T08:12:52.381Z</time></trkpt><trkpt lat="45.574445" lon="8.6676017"><ele>198.0</ele><time>2026-04-18T08:12:53.38Z</time></trkpt><trkpt lat="45.5744617" lon="8.667705"><ele>198.0</ele><time>2026-04-18T08:12:55.385Z</time></trkpt><trkpt lat="45.5744733" lon="8.6678333"><ele>198.0</ele><time>2026-04-18T08:12:58.384Z</time></trkpt><trkpt lat="45.5744833" lon="8.6679267"><ele>198.0</ele><time>2026-04-18T08:13:00.386Z</time></trkpt><trkpt lat="45.5745" lon="8.6680167"><ele>198.0</ele><time>2026-04-18T08:13:02.388Z</time></trkpt><trkpt lat="45.5745233" lon="8.66811"><ele>198.0</ele><time>2026-04-18T08:13:04.381Z</time></trkpt><trkpt lat="45.5745383" lon="8.6682217"><ele>198.0</ele><time>2026-04-18T08:13:07.385Z</time></trkpt><trkpt lat="45.574555" lon="8.668315"><ele>198.0</ele><time>2026-04-18T08:13:09.387Z</time></trkpt><trkpt lat="45.5745683" lon="8.668435"><ele>198.0</ele><time>2026-04-18T08:13:12.386Z</time></trkpt><trkpt lat="45.574585" lon="8.66853"><ele>198.0</ele><time>2026-04-18T08:13:15.387Z</time></trkpt><trkpt lat="45.5746" lon="8.6686317"><ele>198.0</ele><time>2026-04-18T08:13:18.39Z</time></trkpt><trkpt lat="45.5746117" lon="8.66873"><ele>198.0</ele><time>2026-04-18T08:13:21.381Z</time></trkpt><trkpt lat="45.5746167" lon="8.6688217"><ele>198.0</ele><time>2026-04-18T08:13:23.384Z</time></trkpt><trkpt lat="45.57463" lon="8.6689167"><ele>198.0</ele><time>2026-04-18T08:13:25.382Z</time></trkpt><trkpt lat="45.574655" lon="8.66901"><ele>198.0</ele><time>2026-04-18T08:13:28.382Z</time></trkpt><trkpt lat="45.5746833" lon="8.6690967"><ele>198.0</ele><time>2026-04-18T08:13:31.384Z</time></trkpt><trkpt lat="45.5746483" lon="8.6691817"><ele>198.0</ele><time>2026-04-18T08:13:39.386Z</time></trkpt><trkpt lat="45.5747333" lon="8.6691333"><ele>198.0</ele><time>2026-04-18T08:14:10.386Z</time></trkpt><trkpt lat="45.5747967" lon="8.66913"><ele>198.0</ele><time>2026-04-18T08:14:22.386Z</time></trkpt><trkpt lat="45.574875" lon="8.669105"><ele>198.0</ele><time>2026-04-18T08:14:24.385Z</time></trkpt><trkpt lat="45.574945" lon="8.669105"><ele>198.0</ele><time>2026-04-18T08:14:26.387Z</time></trkpt><trkpt lat="45.5750117" lon="8.6691117"><ele>198.0</ele><time>2026-04-18T08:14:29.388Z</time></trkpt><trkpt lat="45.57508" lon="8.6691083"><ele>198.0</ele><time>2026-04-18T08:14:33.386Z</time></trkpt><trkpt lat="45.5751517" lon="8.6691"><ele>198.0</ele><time>2026-04-18T08:14:40.388Z</time></trkpt><trkpt lat="45.575215" lon="8.6691367"><ele>198.0</ele><time>2026-04-18T08:14:48.387Z</time></trkpt><trkpt lat="45.5752617" lon="8.6692783"><ele>198.0</ele><time>2026-04-18T08:14:53.386Z</time></trkpt><trkpt lat="45.5752633" lon="8.66938"><ele>198.0</ele><time>2026-04-18T08:14:59.385Z</time></trkpt><trkpt lat="45.5752067" lon="8.66947"><ele>198.0</ele><time>2026-04-18T08:15:25.389Z</time></trkpt><trkpt lat="45.5751583" lon="8.6693917"><ele>198.0</ele><time>2026-04-18T08:15:28.389Z</time></trkpt><trkpt lat="45.5750933" lon="8.66934"><ele>198.0</ele><time>2026-04-18T08:15:31.385Z</time></trkpt><trkpt lat="45.5750433" lon="8.6692533"><ele>198.0</ele><time>2026-04-18T08:15:34.384Z</time></trkpt><trkpt lat="45.5749833" lon="8.669215"><ele>198.0</ele><time>2026-04-18T08:15:40.386Z</time></trkpt><trkpt lat="45.5749117" lon="8.6692383"><ele>198.0</ele><time>2026-04-18T08:15:46.386Z</time></trkpt><trkpt lat="45.5748383" lon="8.6692817"><ele>198.0</ele><time>2026-04-18T08:15:49.389Z</time></trkpt><trkpt lat="45.5747717" lon="8.6693383"><ele>198.0</ele><time>2026-04-18T08:15:52.387Z</time></trkpt><trkpt lat="45.57471" lon="8.669405"><ele>198.0</ele><time>2026-04-18T08:15:57.387Z</time></trkpt><trkpt lat="45.5746567" lon="8.6694883"><ele>198.0</ele><time>2026-04-18T08:16:00.385Z</time></trkpt><trkpt lat="45.5746133" lon="8.6695783"><ele>198.0</ele><time>2026-04-18T08:16:03.385Z</time></trkpt><trkpt lat="45.5745783" lon="8.6696767"><ele>197.57142857142858</ele><time>2026-04-18T08:16:06.386Z</time></trkpt><trkpt lat="45.5745383" lon="8.6697717"><ele>197.14285714285714</ele><time>2026-04-18T08:16:10.385Z</time></trkpt><trkpt lat="45.5745417" lon="8.669865"><ele>196.71428571428572</ele><time>2026-04-18T08:19:55.387Z</time></trkpt><trkpt lat="45.5745733" lon="8.6699517"><ele>196.28571428571428</ele><time>2026-04-18T08:19:59.388Z</time></trkpt><trkpt lat="45.57461" lon="8.6700467"><ele>195.85714285714283</ele><time>2026-04-18T08:20:02.388Z</time></trkpt><trkpt lat="45.5746567" lon="8.6701317"><ele>195.42857142857142</ele><time>2026-04-18T08:20:06.386Z</time></trkpt><trkpt lat="45.5746917" lon="8.6702167"><ele>195.0</ele><time>2026-04-18T08:20:11.387Z</time></trkpt><trkpt lat="45.5747217" lon="8.670305"><ele>194.42857142857142</ele><time>2026-04-18T08:20:15.39Z</time></trkpt><trkpt lat="45.5747383" lon="8.6704083"><ele>193.85714285714283</ele><time>2026-04-18T08:20:20.39Z</time></trkpt><trkpt lat="45.5747517" lon="8.67051"><ele>193.28571428571428</ele><time>2026-04-18T08:20:24.394Z</time></trkpt><trkpt lat="45.5747567" lon="8.6706167"><ele>192.71428571428572</ele><time>2026-04-18T08:20:28.389Z</time></trkpt><trkpt lat="45.574765" lon="8.6707067"><ele>192.14285714285714</ele><time>2026-04-18T08:20:32.391Z</time></trkpt><trkpt lat="45.5747817" lon="8.6707967"><ele>191.57142857142858</ele><time>2026-04-18T08:20:36.391Z</time></trkpt><trkpt lat="45.574805" lon="8.6708967"><ele>191.0</ele><time>2026-04-18T08:20:41.391Z</time></trkpt><trkpt lat="45.5748183" lon="8.671"><ele>191.0</ele><time>2026-04-18T08:20:45.391Z</time></trkpt><trkpt lat="45.5748217" lon="8.6711"><ele>191.0</ele><time>2026-04-18T08:20:48.388Z</time></trkpt><trkpt lat="45.574815" lon="8.6712383"><ele>191.0</ele><time>2026-04-18T08:20:53.39Z</time></trkpt><trkpt lat="45.574815" lon="8.6713667"><ele>191.0</ele><time>2026-04-18T08:20:56.391Z</time></trkpt><trkpt lat="45.574815" lon="8.67146"><ele>191.0</ele><time>2026-04-18T08:20:58.387Z</time></trkpt><trkpt lat="45.5748183" lon="8.6715617"><ele>191.0</ele><time>2026-04-18T08:21:00.384Z</time></trkpt><trkpt lat="45.574825" lon="8.6716683"><ele>190.66666666666666</ele><time>2026-04-18T08:21:03.388Z</time></trkpt><trkpt lat="45.5748283" lon="8.67177"><ele>190.33333333333331</ele><time>2026-04-18T08:21:07.389Z</time></trkpt><trkpt lat="45.5748333" lon="8.6719017"><ele>190.0</ele><time>2026-04-18T08:21:10.386Z</time></trkpt><trkpt lat="45.5748367" lon="8.6719983"><ele>189.66666666666666</ele><time>2026-04-18T08:21:12.39Z</time></trkpt><trkpt lat="45.5748367" lon="8.67211"><ele>189.33333333333334</ele><time>2026-04-18T08:21:14.389Z</time></trkpt><trkpt lat="45.5748333" lon="8.6722"><ele>189.0</ele><time>2026-04-18T08:21:16.389Z</time></trkpt><trkpt lat="45.5748183" lon="8.672335"><ele>188.83333333333334</ele><time>2026-04-18T08:21:19.388Z</time></trkpt><trkpt lat="45.5748083" lon="8.6724333"><ele>188.66666666666666</ele><time>2026-04-18T08:21:21.391Z</time></trkpt><trkpt lat="45.5747933" lon="8.67254"><ele>188.5</ele><time>2026-04-18T08:21:23.389Z</time></trkpt><trkpt lat="45.5747817" lon="8.6726533"><ele>188.33333333333331</ele><time>2026-04-18T08:21:25.388Z</time></trkpt><trkpt lat="45.574765" lon="8.672775"><ele>188.16666666666666</ele><time>2026-04-18T08:21:27.389Z</time></trkpt><trkpt lat="45.5747467" lon="8.6728733"><ele>188.0</ele><time>2026-04-18T08:21:29.392Z</time></trkpt><trkpt lat="45.5747267" lon="8.67297"><ele>188.0</ele><time>2026-04-18T08:21:32.391Z</time></trkpt><trkpt lat="45.5746917" lon="8.673085"><ele>188.0</ele><time>2026-04-18T08:21:35.388Z</time></trkpt><trkpt lat="45.5746683" lon="8.6731917"><ele>188.0</ele><time>2026-04-18T08:21:38.389Z</time></trkpt><trkpt lat="45.5746633" lon="8.6732983"><ele>188.0</ele><time>2026-04-18T08:21:40.387Z</time></trkpt><trkpt lat="45.574615" lon="8.67337"><ele>188.0</ele><time>2026-04-18T08:21:44.389Z</time></trkpt><trkpt lat="45.5745783" lon="8.6734683"><ele>188.0</ele><time>2026-04-18T08:21:47.388Z</time></trkpt><trkpt lat="45.574545" lon="8.673555"><ele>188.57142857142856</ele><time>2026-04-18T08:21:50.391Z</time></trkpt><trkpt lat="45.5744967" lon="8.6736433"><ele>189.14285714285714</ele><time>2026-04-18T08:21:55.388Z</time></trkpt><trkpt lat="45.5744533" lon="8.6737283"><ele>189.71428571428572</ele><time>2026-04-18T08:22:00.391Z</time></trkpt><trkpt lat="45.5744133" lon="8.6738183"><ele>190.28571428571428</ele><time>2026-04-18T08:22:05.391Z</time></trkpt><trkpt lat="45.57438" lon="8.6739"><ele>190.85714285714286</ele><time>2026-04-18T08:22:09.391Z</time></trkpt><trkpt lat="45.5743467" lon="8.6739767"><ele>191.42857142857142</ele><time>2026-04-18T08:22:13.39Z</time></trkpt><trkpt lat="45.5743333" lon="8.6740833"><ele>192.0</ele><time>2026-04-18T08:22:18.389Z</time></trkpt><trkpt lat="45.5742917" lon="8.6741717"><ele>192.0</ele><time>2026-04-18T08:22:24.391Z</time></trkpt><trkpt lat="45.5742483" lon="8.674265"><ele>192.0</ele><time>2026-04-18T08:22:28.388Z</time></trkpt><trkpt lat="45.574225" lon="8.6743633"><ele>192.0</ele><time>2026-04-18T08:22:31.388Z</time></trkpt><trkpt lat="45.5741933" lon="8.6744767"><ele>192.0</ele><time>2026-04-18T08:22:36.39Z</time></trkpt><trkpt lat="45.574145" lon="8.6745783"><ele>192.0</ele><time>2026-04-18T08:22:40.387Z</time></trkpt><trkpt lat="45.5741083" lon="8.6746583"><ele>192.0</ele><time>2026-04-18T08:22:43.392Z</time></trkpt><trkpt lat="45.5740683" lon="8.6747417"><ele>191.28571428571428</ele><time>2026-04-18T08:22:46.389Z</time></trkpt><trkpt lat="45.5740167" lon="8.6748333"><ele>190.57142857142856</ele><time>2026-04-18T08:22:49.39Z</time></trkpt><trkpt lat="45.5739733" lon="8.6749017"><ele>189.85714285714283</ele><time>2026-04-18T08:22:51.39Z</time></trkpt><trkpt lat="45.5739183" lon="8.6749833"><ele>189.14285714285714</ele><time>2026-04-18T08:22:53.384Z</time></trkpt><trkpt lat="45.573865" lon="8.675065"><ele>188.42857142857144</ele><time>2026-04-18T08:22:55.389Z</time></trkpt><trkpt lat="45.573815" lon="8.67514"><ele>187.7142857142857</ele><time>2026-04-18T08:22:57.389Z</time></trkpt><trkpt lat="45.573765" lon="8.6752133"><ele>187.0</ele><time>2026-04-18T08:22:59.39Z</time></trkpt><trkpt lat="45.5737167" lon="8.67529"><ele>186.5</ele><time>2026-04-18T08:23:01.388Z</time></trkpt><trkpt lat="45.5736817" lon="8.6753667"><ele>186.0</ele><time>2026-04-18T08:23:03.388Z</time></trkpt><trkpt lat="45.573655" lon="8.67549"><ele>185.5</ele><time>2026-04-18T08:23:06.387Z</time></trkpt><trkpt lat="45.57365" lon="8.675615"><ele>185.0</ele><time>2026-04-18T08:23:09.391Z</time></trkpt><trkpt lat="45.5736517" lon="8.6757417"><ele>184.5</ele><time>2026-04-18T08:23:12.387Z</time></trkpt><trkpt lat="45.5736683" lon="8.675845"><ele>184.0</ele><time>2026-04-18T08:23:15.384Z</time></trkpt><trkpt lat="45.57373" lon="8.6759283"><ele>183.66666666666669</ele><time>2026-04-18T08:23:18.39Z</time></trkpt><trkpt lat="45.5738133" lon="8.675985"><ele>183.33333333333334</ele><time>2026-04-18T08:23:21.389Z</time></trkpt><trkpt lat="45.5738783" lon="8.6760283"><ele>183.0</ele><time>2026-04-18T08:23:23.386Z</time></trkpt><trkpt lat="45.5739367" lon="8.6760683"><ele>182.66666666666666</ele><time>2026-04-18T08:23:25.386Z</time></trkpt><trkpt lat="45.5740217" lon="8.67611"><ele>182.33333333333331</ele><time>2026-04-18T08:23:28.388Z</time></trkpt><trkpt lat="45.5740983" lon="8.6761217"><ele>182.0</ele><time>2026-04-18T08:23:31.386Z</time></trkpt><trkpt lat="45.5741683" lon="8.6761267"><ele>182.0</ele><time>2026-04-18T08:23:35.382Z</time></trkpt><trkpt lat="45.5742417" lon="8.6761383"><ele>182.0</ele><time>2026-04-18T08:23:39.39Z</time></trkpt><trkpt lat="45.5742433" lon="8.6760383"><ele>182.0</ele><time>2026-04-18T08:23:52.38Z</time></trkpt><trkpt lat="45.57428" lon="8.6759617"><ele>182.0</ele><time>2026-04-18T08:23:56.38Z</time></trkpt><trkpt lat="45.57435" lon="8.6759433"><ele>182.0</ele><time>2026-04-18T08:24:00.383Z</time></trkpt><trkpt lat="45.5744067" lon="8.6760133"><ele>182.0</ele><time>2026-04-18T08:24:05.382Z</time></trkpt><trkpt lat="45.574445" lon="8.6760983"><ele>182.0</ele><time>2026-04-18T08:24:10.387Z</time></trkpt><trkpt lat="45.574475" lon="8.6762117"><ele>182.0</ele><time>2026-04-18T08:24:14.388Z</time></trkpt><trkpt lat="45.5744817" lon="8.6763417"><ele>182.0</ele><time>2026-04-18T08:24:18.382Z</time></trkpt><trkpt lat="45.5744333" lon="8.6762617"><ele>182.0</ele><time>2026-04-18T08:24:26.383Z</time></trkpt><trkpt lat="45.574405" lon="8.67616"><ele>182.0</ele><time>2026-04-18T08:24:30.384Z</time></trkpt><trkpt lat="45.5744033" lon="8.6762667"><ele>182.0</ele><time>2026-04-18T08:24:38.388Z</time></trkpt><trkpt lat="45.5743967" lon="8.6763683"><ele>182.0</ele><time>2026-04-18T08:24:42.384Z</time></trkpt><trkpt lat="45.5743267" lon="8.67637"><ele>182.0</ele><time>2026-04-18T08:24:47.386Z</time></trkpt><trkpt lat="45.5742933" lon="8.6762467"><ele>182.0</ele><time>2026-04-18T08:24:50.383Z</time></trkpt><trkpt lat="45.5742667" lon="8.6761317"><ele>182.0</ele><time>2026-04-18T08:24:52.38Z</time></trkpt><trkpt lat="45.5742733" lon="8.676"><ele>182.0</ele><time>2026-04-18T08:24:55.387Z</time></trkpt><trkpt lat="45.5743583" lon="8.675995"><ele>182.0</ele><time>2026-04-18T08:24:58.385Z</time></trkpt><trkpt lat="45.5744033" lon="8.6760683"><ele>182.0</ele><time>2026-04-18T08:25:00.386Z</time></trkpt><trkpt lat="45.5744367" lon="8.67619"><ele>182.0</ele><time>2026-04-18T08:25:03.385Z</time></trkpt><trkpt lat="45.5744583" lon="8.6763067"><ele>182.0</ele><time>2026-04-18T08:25:06.387Z</time></trkpt><trkpt lat="45.5744383" lon="8.6764117"><ele>182.0</ele><time>2026-04-18T08:25:09.38Z</time></trkpt><trkpt lat="45.57442" lon="8.6762783"><ele>182.0</ele><time>2026-04-18T08:25:14.382Z</time></trkpt><trkpt lat="45.57438" lon="8.6762033"><ele>182.0</ele><time>2026-04-18T08:25:16.384Z</time></trkpt><trkpt lat="45.57439" lon="8.6763217"><ele>182.0</ele><time>2026-04-18T08:25:20.394Z</time></trkpt><trkpt lat="45.5743417" lon="8.6764033"><ele>182.0</ele><time>2026-04-18T08:25:22.387Z</time></trkpt><trkpt lat="45.5742683" lon="8.6763417"><ele>182.0</ele><time>2026-04-18T08:25:24.387Z</time></trkpt><trkpt lat="45.574245" lon="8.67624"><ele>182.0</ele><time>2026-04-18T08:25:26.385Z</time></trkpt><trkpt lat="45.5742333" lon="8.6761"><ele>182.0</ele><time>2026-04-18T08:25:28.386Z</time></trkpt><trkpt lat="45.5742217" lon="8.67596"><ele>182.0</ele><time>2026-04-18T08:25:30.385Z</time></trkpt><trkpt lat="45.5742567" lon="8.6758667"><ele>182.0</ele><time>2026-04-18T08:25:32.385Z</time></trkpt><trkpt lat="45.5743567" lon="8.6758667"><ele>182.0</ele><time>2026-04-18T08:25:34.388Z</time></trkpt><trkpt lat="45.574445" lon="8.67597"><ele>182.0</ele><time>2026-04-18T08:25:36.381Z</time></trkpt><trkpt lat="45.57448" lon="8.6760767"><ele>182.0</ele><time>2026-04-18T08:25:38.387Z</time></trkpt><trkpt lat="45.5744983" lon="8.676175"><ele>182.0</ele><time>2026-04-18T08:25:42.384Z</time></trkpt><trkpt lat="45.5745133" lon="8.6762717"><ele>182.0</ele><time>2026-04-18T08:25:46.385Z</time></trkpt><trkpt lat="45.5744967" lon="8.67637"><ele>182.0</ele><time>2026-04-18T08:25:49.389Z</time></trkpt><trkpt lat="45.5744633" lon="8.6764633"><ele>182.0</ele><time>2026-04-18T08:25:54.386Z</time></trkpt><trkpt lat="45.5744" lon="8.6764517"><ele>182.0</ele><time>2026-04-18T08:26:13.386Z</time></trkpt><trkpt lat="45.5743767" lon="8.676335"><ele>182.0</ele><time>2026-04-18T08:26:16.385Z</time></trkpt><trkpt lat="45.5743417" lon="8.6762433"><ele>182.0</ele><time>2026-04-18T08:26:19.382Z</time></trkpt><trkpt lat="45.5743233" lon="8.6761367"><ele>182.0</ele><time>2026-04-18T08:26:22.385Z</time></trkpt><trkpt lat="45.57436" lon="8.6760367"><ele>182.0</ele><time>2026-04-18T08:26:25.384Z</time></trkpt><trkpt lat="45.57437" lon="8.675945"><ele>182.0</ele><time>2026-04-18T08:26:30.385Z</time></trkpt><trkpt lat="45.5743067" lon="8.675935"><ele>182.0</ele><time>2026-04-18T08:26:32.386Z</time></trkpt><trkpt lat="45.57424" lon="8.675945"><ele>182.0</ele><time>2026-04-18T08:26:35.384Z</time></trkpt><trkpt lat="45.5743133" lon="8.67597"><ele>182.0</ele><time>2026-04-18T08:26:45.387Z</time></trkpt><trkpt lat="45.5742683" lon="8.6759033"><ele>182.0</ele><time>2026-04-18T08:26:52.383Z</time></trkpt><trkpt lat="45.5742133" lon="8.6759567"><ele>182.0</ele><time>2026-04-18T08:26:55.384Z</time></trkpt><trkpt lat="45.5741967" lon="8.6760483"><ele>182.0</ele><time>2026-04-18T08:27:02.388Z</time></trkpt><trkpt lat="45.574225" lon="8.6761317"><ele>182.0</ele><time>2026-04-18T08:27:06.386Z</time></trkpt><trkpt lat="45.57424" lon="8.6762333"><ele>182.0</ele><time>2026-04-18T08:27:10.386Z</time></trkpt><trkpt lat="45.57424" lon="8.676325"><ele>182.0</ele><time>2026-04-18T08:27:13.385Z</time></trkpt><trkpt lat="45.5742533" lon="8.6764267"><ele>182.0</ele><time>2026-04-18T08:27:17.379Z</time></trkpt><trkpt lat="45.5742983" lon="8.6765117"><ele>182.0</ele><time>2026-04-18T08:27:21.385Z</time></trkpt><trkpt lat="45.5743633" lon="8.6765217"><ele>182.0</ele><time>2026-04-18T08:27:28.385Z</time></trkpt><trkpt lat="45.5744433" lon="8.67653"><ele>182.0</ele><time>2026-04-18T08:28:09.385Z</time></trkpt><trkpt lat="45.5745067" lon="8.6765517"><ele>182.0</ele><time>2026-04-18T08:28:12.386Z</time></trkpt><trkpt lat="45.5745767" lon="8.676575"><ele>182.42857142857142</ele><time>2026-04-18T08:28:16.385Z</time></trkpt><trkpt lat="45.5746167" lon="8.6765033"><ele>182.85714285714286</ele><time>2026-04-18T08:28:27.39Z</time></trkpt><trkpt lat="45.5747117" lon="8.6764817"><ele>183.28571428571428</ele><time>2026-04-18T08:29:18.386Z</time></trkpt><trkpt lat="45.5747733" lon="8.6764533"><ele>183.71428571428572</ele><time>2026-04-18T08:29:22.387Z</time></trkpt><trkpt lat="45.5748383" lon="8.67642"><ele>184.14285714285714</ele><time>2026-04-18T08:29:28.385Z</time></trkpt><trkpt lat="45.574895" lon="8.6763617"><ele>184.57142857142856</ele><time>2026-04-18T08:29:33.39Z</time></trkpt><trkpt lat="45.5749317" lon="8.6762767"><ele>185.0</ele><time>2026-04-18T08:29:41.388Z</time></trkpt><trkpt lat="45.5749833" lon="8.6762117"><ele>184.99999999999997</ele><time>2026-04-18T08:29:47.389Z</time></trkpt><trkpt lat="45.5749283" lon="8.6762617"><ele>185.0</ele><time>2026-04-18T08:30:01.387Z</time></trkpt><trkpt lat="45.574855" lon="8.67621"><ele>185.0</ele><time>2026-04-18T08:30:07.393Z</time></trkpt><trkpt lat="45.5748017" lon="8.6761483"><ele>185.0</ele><time>2026-04-18T08:30:11.386Z</time></trkpt><trkpt lat="45.574735" lon="8.6760883"><ele>185.0</ele><time>2026-04-18T08:30:15.385Z</time></trkpt><trkpt lat="45.5746683" lon="8.6760433"><ele>184.99999999999997</ele><time>2026-04-18T08:30:19.387Z</time></trkpt><trkpt lat="45.5746067" lon="8.67599"><ele>185.0</ele><time>2026-04-18T08:30:23.386Z</time></trkpt><trkpt lat="45.5745383" lon="8.6759617"><ele>184.57142857142856</ele><time>2026-04-18T08:30:27.387Z</time></trkpt><trkpt lat="45.574475" lon="8.6759217"><ele>184.14285714285714</ele><time>2026-04-18T08:30:31.386Z</time></trkpt><trkpt lat="45.5744117" lon="8.6758733"><ele>183.71428571428572</ele><time>2026-04-18T08:30:35.386Z</time></trkpt><trkpt lat="45.5743467" lon="8.6758367"><ele>183.28571428571428</ele><time>2026-04-18T08:30:39.382Z</time></trkpt><trkpt lat="45.5742883" lon="8.675895"><ele>182.85714285714286</ele><time>2026-04-18T08:30:43.384Z</time></trkpt><trkpt lat="45.574225" lon="8.67591"><ele>182.42857142857142</ele><time>2026-04-18T08:30:47.385Z</time></trkpt><trkpt lat="45.5742183" lon="8.67602"><ele>182.0</ele><time>2026-04-18T08:30:57.388Z</time></trkpt><trkpt lat="45.5742467" lon="8.6761117"><ele>182.0</ele><time>2026-04-18T08:31:00.385Z</time></trkpt><trkpt lat="45.5742917" lon="8.6761967"><ele>182.0</ele><time>2026-04-18T08:31:04.387Z</time></trkpt><trkpt lat="45.5743383" lon="8.6762867"><ele>182.0</ele><time>2026-04-18T08:31:08.391Z</time></trkpt><trkpt lat="45.5743983" lon="8.6763483"><ele>182.0</ele><time>2026-04-18T08:31:12.387Z</time></trkpt><trkpt lat="45.5744417" lon="8.6764167"><ele>182.0</ele><time>2026-04-18T08:31:17.385Z</time></trkpt><trkpt lat="45.5744833" lon="8.6764883"><ele>182.0</ele><time>2026-04-18T08:31:21.387Z</time></trkpt><trkpt lat="45.574555" lon="8.67649"><ele>182.0</ele><time>2026-04-18T08:31:26.389Z</time></trkpt><trkpt lat="45.5746183" lon="8.6764833"><ele>182.42857142857142</ele><time>2026-04-18T08:31:34.387Z</time></trkpt><trkpt lat="45.5746783" lon="8.6765133"><ele>182.85714285714286</ele><time>2026-04-18T08:31:59.384Z</time></trkpt><trkpt lat="45.574735" lon="8.6764617"><ele>183.28571428571428</ele><time>2026-04-18T08:32:08.387Z</time></trkpt><trkpt lat="45.574795" lon="8.6764317"><ele>183.71428571428572</ele><time>2026-04-18T08:32:13.383Z</time></trkpt><trkpt lat="45.5748483" lon="8.6763617"><ele>184.14285714285714</ele><time>2026-04-18T08:32:18.386Z</time></trkpt><trkpt lat="45.574895" lon="8.6762933"><ele>184.57142857142856</ele><time>2026-04-18T08:32:22.387Z</time></trkpt><trkpt lat="45.5749483" lon="8.6762367"><ele>185.0</ele><time>2026-04-18T08:32:29.386Z</time></trkpt><trkpt lat="45.5748833" lon="8.6762583"><ele>184.99999999999997</ele><time>2026-04-18T08:32:42.387Z</time></trkpt><trkpt lat="45.5748317" lon="8.676195"><ele>185.0</ele><time>2026-04-18T08:32:47.387Z</time></trkpt><trkpt lat="45.57478" lon="8.6761267"><ele>185.0</ele><time>2026-04-18T08:32:52.386Z</time></trkpt><trkpt lat="45.5747183" lon="8.6760817"><ele>185.0</ele><time>2026-04-18T08:32:56.387Z</time></trkpt><trkpt lat="45.57465" lon="8.676025"><ele>185.0</ele><time>2026-04-18T08:33:00.389Z</time></trkpt><trkpt lat="45.574575" lon="8.6759867"><ele>184.99999999999997</ele><time>2026-04-18T08:33:04.386Z</time></trkpt><trkpt lat="45.5745133" lon="8.67595"><ele>185.0</ele><time>2026-04-18T08:33:07.39Z</time></trkpt><trkpt lat="45.5744333" lon="8.6758967"><ele>184.5</ele><time>2026-04-18T08:33:11.385Z</time></trkpt><trkpt lat="45.5743617" lon="8.6758217"><ele>184.0</ele><time>2026-04-18T08:33:14.389Z</time></trkpt><trkpt lat="45.5743033" lon="8.6757517"><ele>183.5</ele><time>2026-04-18T08:33:17.383Z</time></trkpt><trkpt lat="45.5742467" lon="8.675705"><ele>183.0</ele><time>2026-04-18T08:33:20.388Z</time></trkpt><trkpt lat="45.5741683" lon="8.6756983"><ele>182.5</ele><time>2026-04-18T08:33:24.386Z</time></trkpt><trkpt lat="45.5740983" lon="8.6757133"><ele>182.0</ele><time>2026-04-18T08:33:27.386Z</time></trkpt><trkpt lat="45.5740217" lon="8.6757183"><ele>182.0</ele><time>2026-04-18T08:33:30.386Z</time></trkpt><trkpt lat="45.5739483" lon="8.675725"><ele>182.0</ele><time>2026-04-18T08:33:33.389Z</time></trkpt><trkpt lat="45.57388" lon="8.6757383"><ele>182.0</ele><time>2026-04-18T08:33:36.393Z</time></trkpt><trkpt lat="45.5737983" lon="8.67577"><ele>182.0</ele><time>2026-04-18T08:33:39.392Z</time></trkpt><trkpt lat="45.5737333" lon="8.6758067"><ele>182.0</ele><time>2026-04-18T08:33:42.383Z</time></trkpt><trkpt lat="45.5736717" lon="8.6758383"><ele>182.0</ele><time>2026-04-18T08:33:45.386Z</time></trkpt><trkpt lat="45.573615" lon="8.6757767"><ele>182.0</ele><time>2026-04-18T08:33:49.385Z</time></trkpt><trkpt lat="45.5736033" lon="8.6756617"><ele>182.33333333333331</ele><time>2026-04-18T08:33:52.383Z</time></trkpt><trkpt lat="45.573605" lon="8.6755383"><ele>182.66666666666666</ele><time>2026-04-18T08:33:55.386Z</time></trkpt><trkpt lat="45.5736283" lon="8.675435"><ele>183.0</ele><time>2026-04-18T08:33:58.386Z</time></trkpt><trkpt lat="45.5736683" lon="8.6753367"><ele>183.33333333333334</ele><time>2026-04-18T08:34:02.382Z</time></trkpt><trkpt lat="45.573715" lon="8.675245"><ele>183.66666666666669</ele><time>2026-04-18T08:34:06.389Z</time></trkpt><trkpt lat="45.573755" lon="8.675165"><ele>184.0</ele><time>2026-04-18T08:34:10.385Z</time></trkpt><trkpt lat="45.5738033" lon="8.6751033"><ele>184.42857142857144</ele><time>2026-04-18T08:34:13.385Z</time></trkpt><trkpt lat="45.57386" lon="8.6750183"><ele>184.85714285714283</ele><time>2026-04-18T08:34:17.387Z</time></trkpt><trkpt lat="45.5739033" lon="8.6749433"><ele>185.28571428571428</ele><time>2026-04-18T08:34:20.387Z</time></trkpt><trkpt lat="45.5739517" lon="8.674865"><ele>185.71428571428572</ele><time>2026-04-18T08:34:23.386Z</time></trkpt><trkpt lat="45.5739967" lon="8.6747933"><ele>186.14285714285717</ele><time>2026-04-18T08:34:26.386Z</time></trkpt><trkpt lat="45.574045" lon="8.67473"><ele>186.57142857142856</ele><time>2026-04-18T08:34:29.387Z</time></trkpt><trkpt lat="45.5740917" lon="8.6746433"><ele>187.0</ele><time>2026-04-18T08:34:33.385Z</time></trkpt><trkpt lat="45.57414" lon="8.674565"><ele>187.0</ele><time>2026-04-18T08:34:37.387Z</time></trkpt><trkpt lat="45.57418" lon="8.674485"><ele>187.0</ele><time>2026-04-18T08:34:42.386Z</time></trkpt><trkpt lat="45.574215" lon="8.674385"><ele>187.0</ele><time>2026-04-18T08:34:48.389Z</time></trkpt><trkpt lat="45.57425" lon="8.6742917"><ele>187.0</ele><time>2026-04-18T08:34:54.387Z</time></trkpt><trkpt lat="45.57428" lon="8.6742017"><ele>187.0</ele><time>2026-04-18T08:34:58.386Z</time></trkpt><trkpt lat="45.5743183" lon="8.674105"><ele>187.0</ele><time>2026-04-18T08:35:02.389Z</time></trkpt><trkpt lat="45.5743533" lon="8.67401"><ele>187.0</ele><time>2026-04-18T08:35:06.388Z</time></trkpt><trkpt lat="45.5743817" lon="8.6739183"><ele>187.14285714285714</ele><time>2026-04-18T08:35:09.385Z</time></trkpt><trkpt lat="45.5743983" lon="8.6738083"><ele>187.2857142857143</ele><time>2026-04-18T08:35:13.387Z</time></trkpt><trkpt lat="45.5744267" lon="8.673715"><ele>187.42857142857144</ele><time>2026-04-18T08:35:17.384Z</time></trkpt><trkpt lat="45.5744617" lon="8.6736267"><ele>187.57142857142856</ele><time>2026-04-18T08:35:22.386Z</time></trkpt><trkpt lat="45.5745033" lon="8.6735317"><ele>187.71428571428572</ele><time>2026-04-18T08:35:24.387Z</time></trkpt><trkpt lat="45.574535" lon="8.67344"><ele>187.85714285714286</ele><time>2026-04-18T08:35:30.389Z</time></trkpt><trkpt lat="45.5745883" lon="8.6733617"><ele>188.0</ele><time>2026-04-18T08:36:42.389Z</time></trkpt><trkpt lat="45.5746183" lon="8.67327"><ele>188.0</ele><time>2026-04-18T08:36:46.387Z</time></trkpt><trkpt lat="45.5746467" lon="8.67318"><ele>188.0</ele><time>2026-04-18T08:36:51.389Z</time></trkpt><trkpt lat="45.5746833" lon="8.6730783"><ele>188.0</ele><time>2026-04-18T08:36:55.388Z</time></trkpt><trkpt lat="45.574705" lon="8.6729933"><ele>188.0</ele><time>2026-04-18T08:37:00.392Z</time></trkpt><trkpt lat="45.57473" lon="8.67289"><ele>188.0</ele><time>2026-04-18T08:37:04.387Z</time></trkpt><trkpt lat="45.5747567" lon="8.6727867"><ele>188.0</ele><time>2026-04-18T08:37:08.387Z</time></trkpt><trkpt lat="45.5747667" lon="8.6726817"><ele>188.0</ele><time>2026-04-18T08:37:11.381Z</time></trkpt><trkpt lat="45.5747783" lon="8.672585"><ele>188.0</ele><time>2026-04-18T08:37:14.382Z</time></trkpt><trkpt lat="45.57479" lon="8.672465"><ele>188.0</ele><time>2026-04-18T08:37:17.391Z</time></trkpt><trkpt lat="45.5747933" lon="8.6723633"><ele>188.0</ele><time>2026-04-18T08:37:20.382Z</time></trkpt><trkpt lat="45.5747983" lon="8.6722417"><ele>188.0</ele><time>2026-04-18T08:37:24.386Z</time></trkpt><trkpt lat="45.5748133" lon="8.6721517"><ele>188.0</ele><time>2026-04-18T08:37:27.382Z</time></trkpt><trkpt lat="45.5748183" lon="8.67204"><ele>188.0</ele><time>2026-04-18T08:37:30.379Z</time></trkpt><trkpt lat="45.5748117" lon="8.6719367"><ele>188.14285714285714</ele><time>2026-04-18T08:37:33.385Z</time></trkpt><trkpt lat="45.574795" lon="8.6718267"><ele>188.28571428571428</ele><time>2026-04-18T08:37:38.388Z</time></trkpt><trkpt lat="45.5747933" lon="8.671735"><ele>188.42857142857144</ele><time>2026-04-18T08:37:40.383Z</time></trkpt><trkpt lat="45.5747867" lon="8.6716183"><ele>188.57142857142856</ele><time>2026-04-18T08:37:43.381Z</time></trkpt><trkpt lat="45.5747783" lon="8.67151"><ele>188.71428571428572</ele><time>2026-04-18T08:37:48.388Z</time></trkpt><trkpt lat="45.5747817" lon="8.6714017"><ele>188.85714285714286</ele><time>2026-04-18T08:37:51.39Z</time></trkpt><trkpt lat="45.5747767" lon="8.6713117"><ele>189.0</ele><time>2026-04-18T08:37:54.388Z</time></trkpt><trkpt lat="45.57477" lon="8.6712083"><ele>189.0</ele><time>2026-04-18T08:37:58.386Z</time></trkpt><trkpt lat="45.574755" lon="8.6711083"><ele>189.0</ele><time>2026-04-18T08:38:07.389Z</time></trkpt><trkpt lat="45.5747917" lon="8.6710317"><ele>189.0</ele><time>2026-04-18T08:38:14.39Z</time></trkpt><trkpt lat="45.57475" lon="8.67096"><ele>189.0</ele><time>2026-04-18T08:39:08.387Z</time></trkpt><trkpt lat="45.574725" lon="8.67085"><ele>189.0</ele><time>2026-04-18T08:39:12.383Z</time></trkpt><trkpt lat="45.5747117" lon="8.6707367"><ele>189.0</ele><time>2026-04-18T08:39:15.386Z</time></trkpt><trkpt lat="45.5746783" lon="8.6705983"><ele>189.33333333333334</ele><time>2026-04-18T08:39:17.386Z</time></trkpt><trkpt lat="45.5746533" lon="8.670475"><ele>189.66666666666666</ele><time>2026-04-18T08:39:19.385Z</time></trkpt><trkpt lat="45.5746333" lon="8.6703817"><ele>190.0</ele><time>2026-04-18T08:39:21.388Z</time></trkpt><trkpt lat="45.574595" lon="8.6702667"><ele>190.33333333333331</ele><time>2026-04-18T08:39:23.388Z</time></trkpt><trkpt lat="45.5745533" lon="8.6701833"><ele>190.66666666666666</ele><time>2026-04-18T08:39:25.388Z</time></trkpt><trkpt lat="45.5745" lon="8.6700933"><ele>191.0</ele><time>2026-04-18T08:39:28.387Z</time></trkpt><trkpt lat="45.57446" lon="8.6700017"><ele>191.42857142857144</ele><time>2026-04-18T08:39:32.385Z</time></trkpt><trkpt lat="45.57439" lon="8.6699383"><ele>191.85714285714283</ele><time>2026-04-18T08:39:35.386Z</time></trkpt><trkpt lat="45.57432" lon="8.66989"><ele>192.28571428571428</ele><time>2026-04-18T08:39:38.387Z</time></trkpt><trkpt lat="45.5742683" lon="8.669825"><ele>192.71428571428572</ele><time>2026-04-18T08:39:43.387Z</time></trkpt><trkpt lat="45.5742033" lon="8.669785"><ele>193.14285714285717</ele><time>2026-04-18T08:39:48.39Z</time></trkpt><trkpt lat="45.5741383" lon="8.669775"><ele>193.57142857142856</ele><time>2026-04-18T08:39:51.389Z</time></trkpt><trkpt lat="45.574065" lon="8.669785"><ele>194.0</ele><time>2026-04-18T08:39:55.389Z</time></trkpt><trkpt lat="45.5739883" lon="8.669785"><ele>194.0</ele><time>2026-04-18T08:39:58.389Z</time></trkpt><trkpt lat="45.573915" lon="8.6697917"><ele>194.0</ele><time>2026-04-18T08:40:01.387Z</time></trkpt><trkpt lat="45.573845" lon="8.6697983"><ele>194.0</ele><time>2026-04-18T08:40:06.386Z</time></trkpt><trkpt lat="45.57378" lon="8.6697967"><ele>194.0</ele><time>2026-04-18T08:40:09.387Z</time></trkpt><trkpt lat="45.573715" lon="8.6697833"><ele>194.0</ele><time>2026-04-18T08:40:11.391Z</time></trkpt><trkpt lat="45.5736367" lon="8.6697883"><ele>194.0</ele><time>2026-04-18T08:40:14.382Z</time></trkpt><trkpt lat="45.5735467" lon="8.6698"><ele>194.0</ele><time>2026-04-18T08:40:17.385Z</time></trkpt><trkpt lat="45.57348" lon="8.6698167"><ele>193.83333333333334</ele><time>2026-04-18T08:40:19.387Z</time></trkpt><trkpt lat="45.57341" lon="8.6698183"><ele>193.66666666666669</ele><time>2026-04-18T08:40:21.389Z</time></trkpt><trkpt lat="45.57332" lon="8.6698283"><ele>193.5</ele><time>2026-04-18T08:40:24.387Z</time></trkpt><trkpt lat="45.57323" lon="8.6698667"><ele>193.33333333333331</ele><time>2026-04-18T08:40:27.389Z</time></trkpt><trkpt lat="45.5731483" lon="8.669905"><ele>193.16666666666666</ele><time>2026-04-18T08:40:30.388Z</time></trkpt><trkpt lat="45.573075" lon="8.6699417"><ele>193.0</ele><time>2026-04-18T08:40:33.387Z</time></trkpt><trkpt lat="45.5730117" lon="8.6699633"><ele>193.00000000000003</ele><time>2026-04-18T08:40:36.385Z</time></trkpt><trkpt lat="45.57295" lon="8.6699817"><ele>193.0</ele><time>2026-04-18T08:40:39.386Z</time></trkpt><trkpt lat="45.5728683" lon="8.6699967"><ele>193.0</ele><time>2026-04-18T08:40:42.385Z</time></trkpt><trkpt lat="45.5728" lon="8.66999"><ele>193.0</ele><time>2026-04-18T08:40:45.385Z</time></trkpt><trkpt lat="45.5727283" lon="8.669965"><ele>193.0</ele><time>2026-04-18T08:40:49.387Z</time></trkpt><trkpt lat="45.5726783" lon="8.6699083"><ele>193.00000000000003</ele><time>2026-04-18T08:40:55.388Z</time></trkpt><trkpt lat="45.5726417" lon="8.66983"><ele>193.0</ele><time>2026-04-18T08:41:00.386Z</time></trkpt><trkpt lat="45.5726217" lon="8.66974"><ele>192.85714285714286</ele><time>2026-04-18T08:41:04.383Z</time></trkpt><trkpt lat="45.572615" lon="8.6696333"><ele>192.71428571428572</ele><time>2026-04-18T08:41:08.386Z</time></trkpt><trkpt lat="45.5725917" lon="8.669535"><ele>192.57142857142856</ele><time>2026-04-18T08:41:13.381Z</time></trkpt><trkpt lat="45.5725733" lon="8.669445"><ele>192.42857142857144</ele><time>2026-04-18T08:41:17.387Z</time></trkpt><trkpt lat="45.572555" lon="8.66935"><ele>192.28571428571428</ele><time>2026-04-18T08:41:21.388Z</time></trkpt><trkpt lat="45.57253" lon="8.669265"><ele>192.14285714285714</ele><time>2026-04-18T08:41:25.384Z</time></trkpt><trkpt lat="45.5725033" lon="8.6691783"><ele>192.0</ele><time>2026-04-18T08:41:29.386Z</time></trkpt><trkpt lat="45.5724683" lon="8.6690967"><ele>192.42857142857142</ele><time>2026-04-18T08:41:34.389Z</time></trkpt><trkpt lat="45.572415" lon="8.6690383"><ele>192.85714285714286</ele><time>2026-04-18T08:41:40.385Z</time></trkpt><trkpt lat="45.5724583" lon="8.6689233"><ele>193.28571428571428</ele><time>2026-04-18T08:43:09.385Z</time></trkpt><trkpt lat="45.57245" lon="8.6688333"><ele>193.71428571428572</ele><time>2026-04-18T08:46:02.389Z</time></trkpt><trkpt lat="45.5724283" lon="8.668745"><ele>194.14285714285714</ele><time>2026-04-18T08:46:06.386Z</time></trkpt><trkpt lat="45.5723933" lon="8.6686567"><ele>194.57142857142856</ele><time>2026-04-18T08:46:11.384Z</time></trkpt><trkpt lat="45.5723617" lon="8.6685533"><ele>195.0</ele><time>2026-04-18T08:46:16.387Z</time></trkpt><trkpt lat="45.57234" lon="8.66845"><ele>195.57142857142856</ele><time>2026-04-18T08:46:21.389Z</time></trkpt><trkpt lat="45.5723167" lon="8.668365"><ele>196.14285714285714</ele><time>2026-04-18T08:46:25.388Z</time></trkpt><trkpt lat="45.5722917" lon="8.668275"><ele>196.71428571428572</ele><time>2026-04-18T08:46:29.385Z</time></trkpt><trkpt lat="45.572265" lon="8.668175"><ele>197.28571428571428</ele><time>2026-04-18T08:46:33.385Z</time></trkpt><trkpt lat="45.5722383" lon="8.6680733"><ele>197.85714285714286</ele><time>2026-04-18T08:46:37.387Z</time></trkpt><trkpt lat="45.5722133" lon="8.6679817"><ele>198.42857142857142</ele><time>2026-04-18T08:46:41.386Z</time></trkpt><trkpt lat="45.5722017" lon="8.6678917"><ele>199.0</ele><time>2026-04-18T08:46:45.388Z</time></trkpt><trkpt lat="45.5722067" lon="8.6677883"><ele>198.28571428571428</ele><time>2026-04-18T08:46:49.389Z</time></trkpt><trkpt lat="45.5722133" lon="8.66768"><ele>197.57142857142856</ele><time>2026-04-18T08:46:54.389Z</time></trkpt><trkpt lat="45.5722083" lon="8.6675833"><ele>196.85714285714283</ele><time>2026-04-18T08:46:58.388Z</time></trkpt><trkpt lat="45.5722033" lon="8.6674717"><ele>196.14285714285714</ele><time>2026-04-18T08:47:02.389Z</time></trkpt><trkpt lat="45.5721983" lon="8.6673817"><ele>195.42857142857144</ele><time>2026-04-18T08:47:05.386Z</time></trkpt><trkpt lat="45.57219" lon="8.6672717"><ele>194.7142857142857</ele><time>2026-04-18T08:47:08.388Z</time></trkpt><trkpt lat="45.572175" lon="8.667165"><ele>194.0</ele><time>2026-04-18T08:47:11.385Z</time></trkpt><trkpt lat="45.5721617" lon="8.6670517"><ele>194.0</ele><time>2026-04-18T08:47:14.389Z</time></trkpt><trkpt lat="45.5721483" lon="8.6669483"><ele>194.0</ele><time>2026-04-18T08:47:17.387Z</time></trkpt><trkpt lat="45.572135" lon="8.6668533"><ele>194.0</ele><time>2026-04-18T08:47:20.391Z</time></trkpt><trkpt lat="45.572125" lon="8.6667583"><ele>194.0</ele><time>2026-04-18T08:47:23.386Z</time></trkpt><trkpt lat="45.5721083" lon="8.6666467"><ele>194.0</ele><time>2026-04-18T08:47:27.388Z</time></trkpt><trkpt lat="45.5720983" lon="8.6665517"><ele>194.0</ele><time>2026-04-18T08:47:30.386Z</time></trkpt><trkpt lat="45.57209" lon="8.6664617"><ele>194.0</ele><time>2026-04-18T08:47:33.385Z</time></trkpt><trkpt lat="45.572075" lon="8.666345"><ele>193.57142857142856</ele><time>2026-04-18T08:47:37.387Z</time></trkpt><trkpt lat="45.5720617" lon="8.6662533"><ele>193.14285714285717</ele><time>2026-04-18T08:47:40.387Z</time></trkpt><trkpt lat="45.572045" lon="8.666155"><ele>192.71428571428572</ele><time>2026-04-18T08:47:43.387Z</time></trkpt><trkpt lat="45.5720233" lon="8.6660583"><ele>192.28571428571428</ele><time>2026-04-18T08:47:46.389Z</time></trkpt><trkpt lat="45.572" lon="8.6659683"><ele>191.85714285714283</ele><time>2026-04-18T08:47:49.387Z</time></trkpt><trkpt lat="45.5719767" lon="8.6658817"><ele>191.42857142857144</ele><time>2026-04-18T08:47:52.385Z</time></trkpt><trkpt lat="45.5719517" lon="8.6657783"><ele>191.0</ele><time>2026-04-18T08:47:56.389Z</time></trkpt><trkpt lat="45.57193" lon="8.6656783"><ele>191.0</ele><time>2026-04-18T08:48:00.38Z</time></trkpt><trkpt lat="45.571915" lon="8.6655633"><ele>191.0</ele><time>2026-04-18T08:48:04.385Z</time></trkpt><trkpt lat="45.5718967" lon="8.66547"><ele>191.0</ele><time>2026-04-18T08:48:07.387Z</time></trkpt><trkpt lat="45.571875" lon="8.6653583"><ele>191.0</ele><time>2026-04-18T08:48:11.387Z</time></trkpt><trkpt lat="45.57186" lon="8.6652517"><ele>191.0</ele><time>2026-04-18T08:48:14.39Z</time></trkpt><trkpt lat="45.5718467" lon="8.665135"><ele>191.0</ele><time>2026-04-18T08:48:17.381Z</time></trkpt><trkpt lat="45.5718317" lon="8.66503"><ele>191.14285714285714</ele><time>2026-04-18T08:48:20.385Z</time></trkpt><trkpt lat="45.5718217" lon="8.6649383"><ele>191.28571428571428</ele><time>2026-04-18T08:48:23.386Z</time></trkpt><trkpt lat="45.57181" lon="8.6648433"><ele>191.42857142857142</ele><time>2026-04-18T08:48:26.389Z</time></trkpt><trkpt lat="45.571795" lon="8.6647433"><ele>191.57142857142856</ele><time>2026-04-18T08:48:29.387Z</time></trkpt><trkpt lat="45.571775" lon="8.66464"><ele>191.71428571428572</ele><time>2026-04-18T08:48:32.391Z</time></trkpt><trkpt lat="45.57176" lon="8.6645433"><ele>191.85714285714283</ele><time>2026-04-18T08:48:35.388Z</time></trkpt><trkpt lat="45.5717467" lon="8.664455"><ele>192.0</ele><time>2026-04-18T08:48:38.388Z</time></trkpt><trkpt lat="45.5717317" lon="8.6643617"><ele>191.99999999999997</ele><time>2026-04-18T08:48:41.389Z</time></trkpt><trkpt lat="45.5717217" lon="8.6642717"><ele>192.0</ele><time>2026-04-18T08:48:44.39Z</time></trkpt><trkpt lat="45.5717133" lon="8.66418"><ele>192.0</ele><time>2026-04-18T08:48:47.388Z</time></trkpt><trkpt lat="45.5717017" lon="8.66408"><ele>192.0</ele><time>2026-04-18T08:48:50.388Z</time></trkpt><trkpt lat="45.5716883" lon="8.6639783"><ele>192.0</ele><time>2026-04-18T08:48:53.388Z</time></trkpt><trkpt lat="45.5716733" lon="8.6638833"><ele>191.99999999999997</ele><time>2026-04-18T08:48:56.389Z</time></trkpt><trkpt lat="45.5716567" lon="8.6637933"><ele>192.0</ele><time>2026-04-18T08:48:59.39Z</time></trkpt><trkpt lat="45.5716383" lon="8.6636983"><ele>191.99999999999997</ele><time>2026-04-18T08:49:02.382Z</time></trkpt><trkpt lat="45.57162" lon="8.6635967"><ele>192.0</ele><time>2026-04-18T08:49:05.388Z</time></trkpt><trkpt lat="45.5715933" lon="8.6634983"><ele>192.0</ele><time>2026-04-18T08:49:08.388Z</time></trkpt><trkpt lat="45.5715683" lon="8.6634017"><ele>192.0</ele><time>2026-04-18T08:49:11.387Z</time></trkpt><trkpt lat="45.571545" lon="8.663305"><ele>192.0</ele><time>2026-04-18T08:49:14.387Z</time></trkpt><trkpt lat="45.5715267" lon="8.663205"><ele>191.99999999999997</ele><time>2026-04-18T08:49:17.381Z</time></trkpt><trkpt lat="45.5715067" lon="8.6630933"><ele>192.0</ele><time>2026-04-18T08:49:20.389Z</time></trkpt><trkpt lat="45.5714833" lon="8.6629933"><ele>191.99999999999997</ele><time>2026-04-18T08:49:23.388Z</time></trkpt><trkpt lat="45.5714617" lon="8.6628933"><ele>192.0</ele><time>2026-04-18T08:49:26.389Z</time></trkpt><trkpt lat="45.57144" lon="8.6627983"><ele>192.0</ele><time>2026-04-18T08:49:29.386Z</time></trkpt><trkpt lat="45.57142" lon="8.6627117"><ele>192.0</ele><time>2026-04-18T08:49:32.388Z</time></trkpt><trkpt lat="45.5714117" lon="8.6626167"><ele>192.0</ele><time>2026-04-18T08:49:36.386Z</time></trkpt><trkpt lat="45.571415" lon="8.662505"><ele>191.99999999999997</ele><time>2026-04-18T08:50:52.386Z</time></trkpt><trkpt lat="45.5714083" lon="8.6623833"><ele>192.0</ele><time>2026-04-18T08:50:55.385Z</time></trkpt><trkpt lat="45.5713967" lon="8.6622883"><ele>191.85714285714283</ele><time>2026-04-18T08:50:57.387Z</time></trkpt><trkpt lat="45.5713817" lon="8.6621867"><ele>191.71428571428572</ele><time>2026-04-18T08:50:59.388Z</time></trkpt><trkpt lat="45.5713667" lon="8.66208"><ele>191.57142857142856</ele><time>2026-04-18T08:51:01.387Z</time></trkpt><trkpt lat="45.57135" lon="8.6619783"><ele>191.42857142857142</ele><time>2026-04-18T08:51:03.386Z</time></trkpt><trkpt lat="45.5713317" lon="8.6618817"><ele>191.28571428571428</ele><time>2026-04-18T08:51:05.385Z</time></trkpt><trkpt lat="45.5713167" lon="8.66179"><ele>191.14285714285714</ele><time>2026-04-18T08:51:07.386Z</time></trkpt><trkpt lat="45.5713" lon="8.6617"><ele>191.0</ele><time>2026-04-18T08:51:09.386Z</time></trkpt><trkpt lat="45.5712833" lon="8.661605"><ele>191.0</ele><time>2026-04-18T08:51:11.38Z</time></trkpt><trkpt lat="45.57127" lon="8.6615067"><ele>191.0</ele><time>2026-04-18T08:51:13.386Z</time></trkpt><trkpt lat="45.5712583" lon="8.661405"><ele>191.0</ele><time>2026-04-18T08:51:15.39Z</time></trkpt><trkpt lat="45.5712433" lon="8.6613067"><ele>191.0</ele><time>2026-04-18T08:51:17.383Z</time></trkpt><trkpt lat="45.57123" lon="8.6612117"><ele>191.0</ele><time>2026-04-18T08:51:19.388Z</time></trkpt><trkpt lat="45.5712167" lon="8.6611183"><ele>191.0</ele><time>2026-04-18T08:51:21.39Z</time></trkpt><trkpt lat="45.5712067" lon="8.6609933"><ele>191.0</ele><time>2026-04-18T08:51:24.39Z</time></trkpt><trkpt lat="45.5711967" lon="8.6608967"><ele>191.0</ele><time>2026-04-18T08:51:27.39Z</time></trkpt><trkpt lat="45.57119" lon="8.6607833"><ele>191.0</ele><time>2026-04-18T08:51:30.388Z</time></trkpt><trkpt lat="45.5711767" lon="8.6606567"><ele>191.0</ele><time>2026-04-18T08:51:33.386Z</time></trkpt><trkpt lat="45.571165" lon="8.660525"><ele>191.0</ele><time>2026-04-18T08:51:36.386Z</time></trkpt><trkpt lat="45.5711517" lon="8.6603933"><ele>191.0</ele><time>2026-04-18T08:51:39.386Z</time></trkpt><trkpt lat="45.571135" lon="8.6602667"><ele>191.0</ele><time>2026-04-18T08:51:42.387Z</time></trkpt><trkpt lat="45.5711183" lon="8.660145"><ele>190.5</ele><time>2026-04-18T08:51:45.387Z</time></trkpt><trkpt lat="45.5711117" lon="8.660035"><ele>190.0</ele><time>2026-04-18T08:51:48.39Z</time></trkpt><trkpt lat="45.5711" lon="8.6599117"><ele>189.5</ele><time>2026-04-18T08:51:51.389Z</time></trkpt><trkpt lat="45.5710933" lon="8.6597983"><ele>189.0</ele><time>2026-04-18T08:51:54.387Z</time></trkpt><trkpt lat="45.5710883" lon="8.6597083"><ele>188.5</ele><time>2026-04-18T08:51:57.389Z</time></trkpt><trkpt lat="45.5710833" lon="8.6595983"><ele>188.0</ele><time>2026-04-18T08:52:01.387Z</time></trkpt><trkpt lat="45.57108" lon="8.6594917"><ele>188.57142857142856</ele><time>2026-04-18T08:52:05.388Z</time></trkpt><trkpt lat="45.5710733" lon="8.6593967"><ele>189.14285714285714</ele><time>2026-04-18T08:52:08.386Z</time></trkpt><trkpt lat="45.571075" lon="8.6593033"><ele>189.71428571428572</ele><time>2026-04-18T08:52:11.387Z</time></trkpt><trkpt lat="45.5710733" lon="8.6591983"><ele>190.28571428571428</ele><time>2026-04-18T08:52:14.389Z</time></trkpt><trkpt lat="45.571075" lon="8.659105"><ele>190.85714285714286</ele><time>2026-04-18T08:52:17.386Z</time></trkpt><trkpt lat="45.57108" lon="8.6590133"><ele>191.42857142857142</ele><time>2026-04-18T08:52:20.387Z</time></trkpt><trkpt lat="45.5710867" lon="8.658915"><ele>192.0</ele><time>2026-04-18T08:52:23.389Z</time></trkpt><trkpt lat="45.5710867" lon="8.6588183"><ele>191.99999999999997</ele><time>2026-04-18T08:52:26.389Z</time></trkpt><trkpt lat="45.5710883" lon="8.6587133"><ele>192.0</ele><time>2026-04-18T08:52:29.393Z</time></trkpt><trkpt lat="45.571095" lon="8.6586133"><ele>192.0</ele><time>2026-04-18T08:52:32.389Z</time></trkpt><trkpt lat="45.5711" lon="8.6585117"><ele>192.0</ele><time>2026-04-18T08:52:35.389Z</time></trkpt><trkpt lat="45.5711" lon="8.65841"><ele>192.0</ele><time>2026-04-18T08:52:38.388Z</time></trkpt><trkpt lat="45.571095" lon="8.65832"><ele>191.99999999999997</ele><time>2026-04-18T08:52:41.388Z</time></trkpt><trkpt lat="45.5710883" lon="8.6582117"><ele>192.0</ele><time>2026-04-18T08:52:45.386Z</time></trkpt><trkpt lat="45.5710883" lon="8.6581167"><ele>192.14285714285714</ele><time>2026-04-18T08:52:50.39Z</time></trkpt><trkpt lat="45.5710967" lon="8.65801"><ele>192.28571428571428</ele><time>2026-04-18T08:52:55.388Z</time></trkpt><trkpt lat="45.5710917" lon="8.6578933"><ele>192.42857142857144</ele><time>2026-04-18T08:52:59.388Z</time></trkpt><trkpt lat="45.5710917" lon="8.6578033"><ele>192.57142857142856</ele><time>2026-04-18T08:53:02.388Z</time></trkpt><trkpt lat="45.5710867" lon="8.657685"><ele>192.71428571428572</ele><time>2026-04-18T08:53:06.387Z</time></trkpt><trkpt lat="45.5710783" lon="8.657595"><ele>192.85714285714286</ele><time>2026-04-18T08:53:09.387Z</time></trkpt><trkpt lat="45.5710717" lon="8.6575033"><ele>193.0</ele><time>2026-04-18T08:53:12.387Z</time></trkpt><trkpt lat="45.57106" lon="8.657405"><ele>193.00000000000003</ele><time>2026-04-18T08:53:15.389Z</time></trkpt><trkpt lat="45.571055" lon="8.65729"><ele>193.0</ele><time>2026-04-18T08:53:18.388Z</time></trkpt><trkpt lat="45.5710533" lon="8.65719"><ele>193.0</ele><time>2026-04-18T08:53:21.391Z</time></trkpt><trkpt lat="45.5710583" lon="8.65708"><ele>193.0</ele><time>2026-04-18T08:53:24.389Z</time></trkpt><trkpt lat="45.571055" lon="8.6569783"><ele>193.0</ele><time>2026-04-18T08:53:27.387Z</time></trkpt><trkpt lat="45.5710733" lon="8.6568683"><ele>193.00000000000003</ele><time>2026-04-18T08:53:31.39Z</time></trkpt><trkpt lat="45.57108" lon="8.6567733"><ele>193.0</ele><time>2026-04-18T08:53:34.387Z</time></trkpt><trkpt lat="45.5710883" lon="8.6566767"><ele>192.85714285714286</ele><time>2026-04-18T08:53:37.386Z</time></trkpt><trkpt lat="45.5710783" lon="8.6565633"><ele>192.71428571428572</ele><time>2026-04-18T08:53:41.39Z</time></trkpt><trkpt lat="45.5710783" lon="8.6564683"><ele>192.57142857142856</ele><time>2026-04-18T08:53:44.389Z</time></trkpt><trkpt lat="45.5710767" lon="8.6563717"><ele>192.42857142857144</ele><time>2026-04-18T08:53:47.389Z</time></trkpt><trkpt lat="45.5710717" lon="8.6562683"><ele>192.28571428571428</ele><time>2026-04-18T08:53:50.388Z</time></trkpt><trkpt lat="45.571075" lon="8.6561617"><ele>192.14285714285714</ele><time>2026-04-18T08:53:53.383Z</time></trkpt><trkpt lat="45.57108" lon="8.656055"><ele>192.0</ele><time>2026-04-18T08:53:56.392Z</time></trkpt><trkpt lat="45.57108" lon="8.6559433"><ele>191.83333333333334</ele><time>2026-04-18T08:53:59.388Z</time></trkpt><trkpt lat="45.5710867" lon="8.6558283"><ele>191.66666666666666</ele><time>2026-04-18T08:54:02.387Z</time></trkpt><trkpt lat="45.5710983" lon="8.6557167"><ele>191.5</ele><time>2026-04-18T08:54:05.387Z</time></trkpt><trkpt lat="45.5711217" lon="8.65563"><ele>191.33333333333331</ele><time>2026-04-18T08:54:08.387Z</time></trkpt><trkpt lat="45.5711667" lon="8.6555583"><ele>191.16666666666666</ele><time>2026-04-18T08:54:19.387Z</time></trkpt><trkpt lat="45.571155" lon="8.6554367"><ele>191.0</ele><time>2026-04-18T08:54:24.388Z</time></trkpt><trkpt lat="45.571155" lon="8.6553217"><ele>191.0</ele><time>2026-04-18T08:54:27.386Z</time></trkpt><trkpt lat="45.5711583" lon="8.6552017"><ele>191.0</ele><time>2026-04-18T08:54:30.389Z</time></trkpt><trkpt lat="45.571175" lon="8.6550717"><ele>191.0</ele><time>2026-04-18T08:54:33.388Z</time></trkpt><trkpt lat="45.571195" lon="8.6549433"><ele>191.0</ele><time>2026-04-18T08:54:36.386Z</time></trkpt><trkpt lat="45.5712233" lon="8.654845"><ele>191.0</ele><time>2026-04-18T08:54:38.389Z</time></trkpt><trkpt lat="45.5712533" lon="8.6547583"><ele>191.0</ele><time>2026-04-18T08:54:40.385Z</time></trkpt><trkpt lat="45.5712817" lon="8.6546767"><ele>191.0</ele><time>2026-04-18T08:54:42.389Z</time></trkpt><trkpt lat="45.5713283" lon="8.6545667"><ele>191.0</ele><time>2026-04-18T08:54:45.387Z</time></trkpt><trkpt lat="45.571375" lon="8.6544767"><ele>191.0</ele><time>2026-04-18T08:54:48.388Z</time></trkpt><trkpt lat="45.5714217" lon="8.6543767"><ele>191.0</ele><time>2026-04-18T08:54:51.387Z</time></trkpt><trkpt lat="45.5714667" lon="8.6542717"><ele>191.0</ele><time>2026-04-18T08:54:54.39Z</time></trkpt><trkpt lat="45.5715083" lon="8.654175"><ele>191.0</ele><time>2026-04-18T08:54:57.387Z</time></trkpt><trkpt lat="45.5715617" lon="8.6541"><ele>191.33333333333331</ele><time>2026-04-18T08:55:00.388Z</time></trkpt><trkpt lat="45.5716067" lon="8.6540167"><ele>191.66666666666666</ele><time>2026-04-18T08:55:03.386Z</time></trkpt><trkpt lat="45.5716433" lon="8.6539133"><ele>192.0</ele><time>2026-04-18T08:55:06.386Z</time></trkpt><trkpt lat="45.57168" lon="8.6538067"><ele>192.33333333333331</ele><time>2026-04-18T08:55:09.388Z</time></trkpt><trkpt lat="45.571705" lon="8.6536867"><ele>192.66666666666666</ele><time>2026-04-18T08:55:12.39Z</time></trkpt><trkpt lat="45.5717267" lon="8.6535733"><ele>193.0</ele><time>2026-04-18T08:55:15.388Z</time></trkpt><trkpt lat="45.57175" lon="8.6534783"><ele>193.16666666666666</ele><time>2026-04-18T08:55:18.388Z</time></trkpt><trkpt lat="45.5717717" lon="8.6533833"><ele>193.33333333333331</ele><time>2026-04-18T08:55:21.389Z</time></trkpt><trkpt lat="45.5717867" lon="8.653285"><ele>193.5</ele><time>2026-04-18T08:55:24.385Z</time></trkpt><trkpt lat="45.5718083" lon="8.6531817"><ele>193.66666666666669</ele><time>2026-04-18T08:55:27.388Z</time></trkpt><trkpt lat="45.57183" lon="8.6530783"><ele>193.83333333333334</ele><time>2026-04-18T08:55:30.389Z</time></trkpt><trkpt lat="45.5718567" lon="8.6529683"><ele>194.0</ele><time>2026-04-18T08:55:33.39Z</time></trkpt><trkpt lat="45.5718733" lon="8.6528517"><ele>194.16666666666669</ele><time>2026-04-18T08:55:36.388Z</time></trkpt><trkpt lat="45.57189" lon="8.65274"><ele>194.33333333333334</ele><time>2026-04-18T08:55:39.387Z</time></trkpt><trkpt lat="45.5719033" lon="8.6526233"><ele>194.5</ele><time>2026-04-18T08:55:42.389Z</time></trkpt><trkpt lat="45.5719267" lon="8.65251"><ele>194.66666666666669</ele><time>2026-04-18T08:55:45.387Z</time></trkpt><trkpt lat="45.5719517" lon="8.6524017"><ele>194.83333333333334</ele><time>2026-04-18T08:55:48.387Z</time></trkpt><trkpt lat="45.5719767" lon="8.6522983"><ele>195.0</ele><time>2026-04-18T08:55:51.388Z</time></trkpt><trkpt lat="45.572" lon="8.652185"><ele>194.85714285714286</ele><time>2026-04-18T08:55:54.387Z</time></trkpt><trkpt lat="45.5720283" lon="8.6520733"><ele>194.71428571428572</ele><time>2026-04-18T08:55:57.386Z</time></trkpt><trkpt lat="45.5720433" lon="8.6519783"><ele>194.57142857142856</ele><time>2026-04-18T08:56:00.385Z</time></trkpt><trkpt lat="45.5720667" lon="8.6518867"><ele>194.42857142857144</ele><time>2026-04-18T08:56:03.389Z</time></trkpt><trkpt lat="45.5720933" lon="8.6517833"><ele>194.2857142857143</ele><time>2026-04-18T08:56:06.387Z</time></trkpt><trkpt lat="45.572115" lon="8.65168"><ele>194.14285714285714</ele><time>2026-04-18T08:56:09.389Z</time></trkpt><trkpt lat="45.5721317" lon="8.6515783"><ele>194.0</ele><time>2026-04-18T08:56:12.387Z</time></trkpt><trkpt lat="45.5721483" lon="8.6514767"><ele>194.0</ele><time>2026-04-18T08:56:17.389Z</time></trkpt><trkpt lat="45.572165" lon="8.6513867"><ele>194.0</ele><time>2026-04-18T08:56:25.387Z</time></trkpt><trkpt lat="45.5721617" lon="8.6512917"><ele>194.0</ele><time>2026-04-18T08:56:40.387Z</time></trkpt><trkpt lat="45.5720967" lon="8.6512417"><ele>194.0</ele><time>2026-04-18T08:56:45.384Z</time></trkpt><trkpt lat="45.57202" lon="8.6512583"><ele>194.0</ele><time>2026-04-18T08:56:48.389Z</time></trkpt><trkpt lat="45.57194" lon="8.65126"><ele>194.0</ele><time>2026-04-18T08:56:51.388Z</time></trkpt><trkpt lat="45.5718617" lon="8.6512467"><ele>194.0</ele><time>2026-04-18T08:56:54.387Z</time></trkpt><trkpt lat="45.5717833" lon="8.6512383"><ele>194.00000000000003</ele><time>2026-04-18T08:56:57.386Z</time></trkpt><trkpt lat="45.5717" lon="8.6512383"><ele>194.0</ele><time>2026-04-18T08:57:00.381Z</time></trkpt><trkpt lat="45.5716083" lon="8.6512383"><ele>194.0</ele><time>2026-04-18T08:57:03.388Z</time></trkpt><trkpt lat="45.5715133" lon="8.6512367"><ele>194.0</ele><time>2026-04-18T08:57:06.388Z</time></trkpt><trkpt lat="45.57145" lon="8.6512317"><ele>194.00000000000003</ele><time>2026-04-18T08:57:08.388Z</time></trkpt><trkpt lat="45.5713583" lon="8.6512283"><ele>194.0</ele><time>2026-04-18T08:57:11.386Z</time></trkpt><trkpt lat="45.5712933" lon="8.6512283"><ele>194.00000000000003</ele><time>2026-04-18T08:57:13.388Z</time></trkpt><trkpt lat="45.57123" lon="8.6512183"><ele>194.0</ele><time>2026-04-18T08:57:15.387Z</time></trkpt><trkpt lat="45.5711883" lon="8.651145"><ele>194.0</ele><time>2026-04-18T08:57:18.389Z</time></trkpt><trkpt lat="45.5711667" lon="8.6510367"><ele>194.0</ele><time>2026-04-18T08:57:21.388Z</time></trkpt><trkpt lat="45.5711617" lon="8.6509117"><ele>194.00000000000003</ele><time>2026-04-18T08:57:24.391Z</time></trkpt><trkpt lat="45.571155" lon="8.6507767"><ele>194.0</ele><time>2026-04-18T08:57:27.387Z</time></trkpt><trkpt lat="45.57115" lon="8.6506817"><ele>193.83333333333334</ele><time>2026-04-18T08:57:29.388Z</time></trkpt><trkpt lat="45.5711467" lon="8.65059"><ele>193.66666666666669</ele><time>2026-04-18T08:57:31.388Z</time></trkpt><trkpt lat="45.5711467" lon="8.6504567"><ele>193.5</ele><time>2026-04-18T08:57:34.388Z</time></trkpt><trkpt lat="45.571145" lon="8.6503667"><ele>193.33333333333331</ele><time>2026-04-18T08:57:36.389Z</time></trkpt><trkpt lat="45.57114" lon="8.6502733"><ele>193.16666666666666</ele><time>2026-04-18T08:57:38.381Z</time></trkpt><trkpt lat="45.5711367" lon="8.65014"><ele>193.0</ele><time>2026-04-18T08:57:41.387Z</time></trkpt><trkpt lat="45.5711317" lon="8.6500067"><ele>192.99999999999997</ele><time>2026-04-18T08:57:44.38Z</time></trkpt><trkpt lat="45.5711233" lon="8.649875"><ele>193.0</ele><time>2026-04-18T08:57:47.39Z</time></trkpt><trkpt lat="45.571115" lon="8.6497433"><ele>193.0</ele><time>2026-04-18T08:57:50.39Z</time></trkpt><trkpt lat="45.5711083" lon="8.6496517"><ele>193.0</ele><time>2026-04-18T08:57:52.387Z</time></trkpt><trkpt lat="45.5710983" lon="8.6495217"><ele>192.99999999999997</ele><time>2026-04-18T08:57:55.388Z</time></trkpt><trkpt lat="45.57109" lon="8.6493917"><ele>193.0</ele><time>2026-04-18T08:57:58.388Z</time></trkpt><trkpt lat="45.5710783" lon="8.6492633"><ele>193.16666666666666</ele><time>2026-04-18T08:58:01.385Z</time></trkpt><trkpt lat="45.5710683" lon="8.649135"><ele>193.33333333333331</ele><time>2026-04-18T08:58:04.38Z</time></trkpt><trkpt lat="45.5710567" lon="8.64904"><ele>193.5</ele><time>2026-04-18T08:58:06.387Z</time></trkpt><trkpt lat="45.57105" lon="8.6489333"><ele>193.66666666666669</ele><time>2026-04-18T08:58:08.389Z</time></trkpt><trkpt lat="45.5710467" lon="8.6488317"><ele>193.83333333333334</ele><time>2026-04-18T08:58:10.387Z</time></trkpt><trkpt lat="45.5710433" lon="8.64874"><ele>194.0</ele><time>2026-04-18T08:58:12.389Z</time></trkpt><trkpt lat="45.5710333" lon="8.6486217"><ele>194.14285714285714</ele><time>2026-04-18T08:58:15.389Z</time></trkpt><trkpt lat="45.5710233" lon="8.6485317"><ele>194.2857142857143</ele><time>2026-04-18T08:58:23.388Z</time></trkpt><trkpt lat="45.5710083" lon="8.64842"><ele>194.42857142857144</ele><time>2026-04-18T08:58:29.385Z</time></trkpt><trkpt lat="45.5709917" lon="8.6483317"><ele>194.57142857142856</ele><time>2026-04-18T08:58:31.388Z</time></trkpt><trkpt lat="45.5709767" lon="8.6482367"><ele>194.71428571428572</ele><time>2026-04-18T08:58:33.388Z</time></trkpt><trkpt lat="45.57097" lon="8.64813"><ele>194.85714285714286</ele><time>2026-04-18T08:58:35.387Z</time></trkpt><trkpt lat="45.570965" lon="8.6480217"><ele>195.0</ele><time>2026-04-18T08:58:37.387Z</time></trkpt><trkpt lat="45.5709617" lon="8.6479117"><ele>195.0</ele><time>2026-04-18T08:58:39.388Z</time></trkpt><trkpt lat="45.5709567" lon="8.6478067"><ele>195.0</ele><time>2026-04-18T08:58:41.39Z</time></trkpt><trkpt lat="45.5709517" lon="8.64771"><ele>195.0</ele><time>2026-04-18T08:58:43.386Z</time></trkpt><trkpt lat="45.5709417" lon="8.64758"><ele>195.0</ele><time>2026-04-18T08:58:46.387Z</time></trkpt><trkpt lat="45.5709317" lon="8.6474533"><ele>195.0</ele><time>2026-04-18T08:58:49.39Z</time></trkpt><trkpt lat="45.5709217" lon="8.6473333"><ele>195.0</ele><time>2026-04-18T08:58:52.388Z</time></trkpt><trkpt lat="45.5709133" lon="8.6472383"><ele>194.0</ele><time>2026-04-18T08:58:58.386Z</time></trkpt><trkpt lat="45.5709317" lon="8.6471517"><ele>194.0</ele><time>2026-04-18T08:59:11.385Z</time></trkpt></trkseg></trk></gpx>